DAL95 EGLL-KCLT
Flight info
| Callsign | DAL95 |
|---|---|
| Flight time | 7h 55m |
| Altitude | 38000 |
| Route | CPT L9 BUCGO DCT FELCA DCT OFSOX DCT SLANY DCT LUNIG DCT LUPOR DCT LONDU DCT MALOT/M082F380 NATE RIKAL/N0471F380 N572A TOPPS DCT KAYCC DCT KYLOH DCT NELIE Q75 GVE DCT AIROW CHSLY6 |
| Aircraft | A339/H-SADE1E2E3GHIJ3J5M1P2RWXY/LB2D1 |
Departure
| Time | 2026-05-05 12:27 |
|---|---|
| Airport | London Heathrow Airport (EGLL) |
Arrival
| Time | 2026-05-05 20:23 |
|---|---|
| Airport | Charlotte Douglas International Airport (KCLT) |
| Time | Latitude | Longitude | Altitude | Speed | Heading |
|---|---|---|---|---|---|
| 2026-05-05 12:15 | 51.47032 | -0.46857 | 86 ft | 0 kts | 188° |
| 2026-05-05 12:18 | 51.47027 | -0.46858 | 86 ft | 2 kts | 188° |
| 2026-05-05 12:18 | 51.46996 | -0.46863 | 86 ft | 6 kts | 184° |
| 2026-05-05 12:18 | 51.46941 | -0.46864 | 86 ft | 9 kts | 180° |
| 2026-05-05 12:19 | 51.46875 | -0.46864 | 86 ft | 8 kts | 180° |
| 2026-05-05 12:19 | 51.46850 | -0.46864 | 86 ft | 0 kts | 180° |
| 2026-05-05 12:19 | 51.46844 | -0.46864 | 86 ft | 0 kts | 179° |
| 2026-05-05 12:20 | 51.46818 | -0.46863 | 86 ft | 7 kts | 179° |
| 2026-05-05 12:20 | 51.46757 | -0.46862 | 86 ft | 10 kts | 180° |
| 2026-05-05 12:21 | 51.46695 | -0.46865 | 86 ft | 7 kts | 189° |
| 2026-05-05 12:21 | 51.46664 | -0.46923 | 86 ft | 8 kts | 251° |
| 2026-05-05 12:21 | 51.46656 | -0.47036 | 86 ft | 11 kts | 268° |
| 2026-05-05 12:21 | 51.46655 | -0.47121 | 86 ft | 7 kts | 270° |
| 2026-05-05 12:22 | 51.46655 | -0.47220 | 86 ft | 10 kts | 270° |
| 2026-05-05 12:22 | 51.46655 | -0.47336 | 86 ft | 6 kts | 270° |
| 2026-05-05 12:22 | 51.46654 | -0.47429 | 86 ft | 9 kts | 269° |
| 2026-05-05 12:22 | 51.46653 | -0.47555 | 86 ft | 12 kts | 270° |
| 2026-05-05 12:23 | 51.46654 | -0.47707 | 86 ft | 13 kts | 271° |
| 2026-05-05 12:23 | 51.46653 | -0.47858 | 86 ft | 14 kts | 270° |
| 2026-05-05 12:23 | 51.46652 | -0.47977 | 86 ft | 5 kts | 269° |
| 2026-05-05 12:23 | 51.46652 | -0.48015 | 86 ft | 3 kts | 269° |
| 2026-05-05 12:24 | 51.46651 | -0.48074 | 86 ft | 7 kts | 270° |
| 2026-05-05 12:24 | 51.46652 | -0.48171 | 86 ft | 10 kts | 271° |
| 2026-05-05 12:24 | 51.46652 | -0.48298 | 86 ft | 12 kts | 271° |
| 2026-05-05 12:24 | 51.46649 | -0.48403 | 86 ft | 9 kts | 258° |
| 2026-05-05 12:25 | 51.46613 | -0.48464 | 86 ft | 7 kts | 184° |
| 2026-05-05 12:25 | 51.46600 | -0.48465 | 86 ft | 1 kts | 183° |
| 2026-05-05 12:25 | 51.46591 | -0.48465 | 86 ft | 2 kts | 183° |
| 2026-05-05 12:25 | 51.46548 | -0.48468 | 86 ft | 9 kts | 183° |
| 2026-05-05 12:26 | 51.46487 | -0.48457 | 86 ft | 7 kts | 142° |
| 2026-05-05 12:26 | 51.46479 | -0.48409 | 86 ft | 6 kts | 93° |
| 2026-05-05 12:26 | 51.46476 | -0.48118 | 86 ft | 51 kts | 89° |
| 2026-05-05 12:26 | 51.46483 | -0.47181 | 86 ft | 114 kts | 91° |
| 2026-05-05 12:27 | 51.46487 | -0.45621 | 87 ft | 166 kts | 89° |
| 2026-05-05 12:27 | 51.46498 | -0.43555 | 236 ft | 196 kts | 89° |
| 2026-05-05 12:27 | 51.46443 | -0.41440 | 1016 ft | 192 kts | 105° |
| 2026-05-05 12:27 | 51.45785 | -0.39648 | 1752 ft | 196 kts | 138° |
| 2026-05-05 12:28 | 51.44535 | -0.38679 | 2293 ft | 211 kts | 173° |
| 2026-05-05 12:28 | 51.43044 | -0.38974 | 2733 ft | 230 kts | 202° |
| 2026-05-05 12:28 | 51.41660 | -0.40388 | 3220 ft | 245 kts | 227° |
| 2026-05-05 12:28 | 51.40815 | -0.42819 | 3670 ft | 261 kts | 256° |
| 2026-05-05 12:29 | 51.40349 | -0.45657 | 4269 ft | 271 kts | 251° |
| 2026-05-05 12:29 | 51.39850 | -0.48536 | 5034 ft | 274 kts | 267° |
| 2026-05-05 12:29 | 51.40035 | -0.51577 | 5720 ft | 279 kts | 282° |
| 2026-05-05 12:29 | 51.40418 | -0.54636 | 6374 ft | 286 kts | 281° |
| 2026-05-05 12:30 | 51.40806 | -0.57729 | 7015 ft | 281 kts | 281° |
| 2026-05-05 12:30 | 51.41195 | -0.60767 | 7629 ft | 280 kts | 281° |
| 2026-05-05 12:30 | 51.41586 | -0.63802 | 7964 ft | 281 kts | 281° |
| 2026-05-05 12:30 | 51.41984 | -0.66868 | 7995 ft | 281 kts | 281° |
| 2026-05-05 12:31 | 51.42382 | -0.69929 | 7998 ft | 280 kts | 281° |
| 2026-05-05 12:31 | 51.42781 | -0.73007 | 8156 ft | 286 kts | 281° |
| 2026-05-05 12:31 | 51.43285 | -0.76087 | 8803 ft | 287 kts | 288° |
| 2026-05-05 12:31 | 51.43918 | -0.79095 | 9519 ft | 286 kts | 286° |
| 2026-05-05 12:32 | 51.44466 | -0.82131 | 10137 ft | 288 kts | 283° |
| 2026-05-05 12:32 | 51.44938 | -0.85283 | 10531 ft | 299 kts | 281° |
| 2026-05-05 12:32 | 51.45372 | -0.88606 | 10810 ft | 314 kts | 280° |
| 2026-05-05 12:32 | 51.45791 | -0.92141 | 11089 ft | 329 kts | 279° |
| 2026-05-05 12:33 | 51.46211 | -0.95824 | 11344 ft | 344 kts | 279° |
| 2026-05-05 12:33 | 51.46645 | -0.99646 | 11616 ft | 358 kts | 279° |
| 2026-05-05 12:33 | 51.47091 | -1.03575 | 12072 ft | 366 kts | 279° |
| 2026-05-05 12:33 | 51.47550 | -1.07616 | 12719 ft | 368 kts | 279° |
| 2026-05-05 12:34 | 51.48005 | -1.11627 | 13354 ft | 371 kts | 279° |
| 2026-05-05 12:34 | 51.48468 | -1.15722 | 13928 ft | 374 kts | 279° |
| 2026-05-05 12:34 | 51.49102 | -1.19764 | 14482 ft | 379 kts | 290° |
| 2026-05-05 12:34 | 51.50359 | -1.23486 | 14910 ft | 383 kts | 305° |
| 2026-05-05 12:35 | 51.52124 | -1.26619 | 15002 ft | 385 kts | 315° |
| 2026-05-05 12:35 | 51.54098 | -1.29547 | 14999 ft | 384 kts | 317° |
| 2026-05-05 12:35 | 51.56043 | -1.32396 | 14996 ft | 383 kts | 316° |
| 2026-05-05 12:35 | 51.57999 | -1.35301 | 15008 ft | 384 kts | 316° |
| 2026-05-05 12:36 | 51.59856 | -1.38382 | 15006 ft | 383 kts | 309° |
| 2026-05-05 12:36 | 51.61465 | -1.41789 | 15006 ft | 383 kts | 303° |
| 2026-05-05 12:36 | 51.62832 | -1.45493 | 15134 ft | 388 kts | 298° |
| 2026-05-05 12:36 | 51.64092 | -1.49281 | 15732 ft | 390 kts | 297° |
| 2026-05-05 12:37 | 51.65352 | -1.53130 | 16384 ft | 391 kts | 297° |
| 2026-05-05 12:37 | 51.66632 | -1.57024 | 16949 ft | 395 kts | 297° |
| 2026-05-05 12:37 | 51.67931 | -1.60958 | 17505 ft | 399 kts | 297° |
| 2026-05-05 12:37 | 51.69194 | -1.64887 | 18057 ft | 401 kts | 293° |
| 2026-05-05 12:38 | 51.70183 | -1.69076 | 18612 ft | 403 kts | 285° |
| 2026-05-05 12:38 | 51.70819 | -1.73495 | 19146 ft | 404 kts | 277° |
| 2026-05-05 12:38 | 51.71178 | -1.77954 | 19665 ft | 407 kts | 275° |
| 2026-05-05 12:38 | 51.71487 | -1.82508 | 20180 ft | 409 kts | 274° |
| 2026-05-05 12:39 | 51.71793 | -1.87009 | 20675 ft | 412 kts | 275° |
| 2026-05-05 12:39 | 51.72116 | -1.91652 | 21164 ft | 415 kts | 275° |
| 2026-05-05 12:39 | 51.72439 | -1.96238 | 21633 ft | 418 kts | 275° |
| 2026-05-05 12:39 | 51.72766 | -2.00901 | 22099 ft | 421 kts | 275° |
| 2026-05-05 12:40 | 51.73094 | -2.05588 | 22546 ft | 423 kts | 275° |
| 2026-05-05 12:40 | 51.73422 | -2.10291 | 22984 ft | 426 kts | 275° |
| 2026-05-05 12:40 | 51.73751 | -2.15028 | 23416 ft | 428 kts | 275° |
| 2026-05-05 12:40 | 51.74083 | -2.19793 | 23819 ft | 431 kts | 275° |
| 2026-05-05 12:41 | 51.74415 | -2.24610 | 24187 ft | 435 kts | 275° |
| 2026-05-05 12:41 | 51.74747 | -2.29467 | 24547 ft | 438 kts | 275° |
| 2026-05-05 12:41 | 51.75079 | -2.34371 | 24892 ft | 441 kts | 275° |
| 2026-05-05 12:41 | 51.75406 | -2.39236 | 25226 ft | 445 kts | 275° |
| 2026-05-05 12:42 | 51.75740 | -2.44246 | 25578 ft | 447 kts | 275° |
| 2026-05-05 12:42 | 51.76069 | -2.49211 | 25911 ft | 450 kts | 275° |
| 2026-05-05 12:42 | 51.76398 | -2.54201 | 26234 ft | 453 kts | 275° |
| 2026-05-05 12:42 | 51.76733 | -2.59299 | 26555 ft | 455 kts | 275° |
| 2026-05-05 12:43 | 51.77063 | -2.64339 | 26862 ft | 458 kts | 275° |
| 2026-05-05 12:43 | 51.77401 | -2.69491 | 27161 ft | 461 kts | 274° |
| 2026-05-05 12:43 | 51.77732 | -2.74603 | 27443 ft | 463 kts | 275° |
| 2026-05-05 12:43 | 51.78059 | -2.79745 | 27726 ft | 466 kts | 275° |
| 2026-05-05 12:44 | 51.78393 | -2.84993 | 28023 ft | 468 kts | 275° |
| 2026-05-05 12:44 | 51.78721 | -2.90208 | 28299 ft | 470 kts | 275° |
| 2026-05-05 12:44 | 51.79048 | -2.95446 | 28565 ft | 473 kts | 275° |
| 2026-05-05 12:44 | 51.79374 | -3.00698 | 28822 ft | 475 kts | 275° |
| 2026-05-05 12:45 | 51.79700 | -3.05985 | 29066 ft | 478 kts | 275° |
| 2026-05-05 12:45 | 51.80030 | -3.11361 | 29303 ft | 481 kts | 275° |
| 2026-05-05 12:45 | 51.80355 | -3.16721 | 29563 ft | 482 kts | 275° |
| 2026-05-05 12:45 | 51.80678 | -3.22092 | 29905 ft | 482 kts | 275° |
| 2026-05-05 12:46 | 51.80997 | -3.27448 | 30258 ft | 482 kts | 275° |
| 2026-05-05 12:46 | 51.81313 | -3.32812 | 30579 ft | 482 kts | 275° |
| 2026-05-05 12:46 | 51.81627 | -3.38162 | 30861 ft | 483 kts | 275° |
| 2026-05-05 12:46 | 51.81938 | -3.43523 | 31128 ft | 483 kts | 275° |
| 2026-05-05 12:47 | 51.82252 | -3.48916 | 31418 ft | 483 kts | 276° |
| 2026-05-05 12:47 | 51.82676 | -3.54326 | 31696 ft | 483 kts | 279° |
| 2026-05-05 12:47 | 51.83266 | -3.59602 | 31967 ft | 482 kts | 282° |
| 2026-05-05 12:47 | 51.83944 | -3.64890 | 32248 ft | 482 kts | 283° |
| 2026-05-05 12:48 | 51.84633 | -3.70136 | 32517 ft | 482 kts | 282° |
| 2026-05-05 12:48 | 51.85322 | -3.75413 | 32785 ft | 481 kts | 282° |
| 2026-05-05 12:48 | 51.86013 | -3.80736 | 33045 ft | 481 kts | 282° |
| 2026-05-05 12:48 | 51.86690 | -3.85972 | 33276 ft | 481 kts | 282° |
| 2026-05-05 12:49 | 51.87371 | -3.91303 | 33504 ft | 482 kts | 282° |
| 2026-05-05 12:49 | 51.88038 | -3.96540 | 33746 ft | 481 kts | 283° |
| 2026-05-05 12:49 | 51.88710 | -4.01847 | 34001 ft | 481 kts | 283° |
| 2026-05-05 12:49 | 51.89371 | -4.07085 | 34236 ft | 480 kts | 283° |
| 2026-05-05 12:50 | 51.90034 | -4.12364 | 34443 ft | 480 kts | 283° |
| 2026-05-05 12:50 | 51.90691 | -4.17623 | 34631 ft | 481 kts | 283° |
| 2026-05-05 12:50 | 51.91352 | -4.22922 | 34842 ft | 480 kts | 283° |
| 2026-05-05 12:50 | 51.92005 | -4.28187 | 35055 ft | 479 kts | 283° |
| 2026-05-05 12:51 | 51.92662 | -4.33484 | 35276 ft | 478 kts | 283° |
| 2026-05-05 12:51 | 51.93303 | -4.38682 | 35488 ft | 477 kts | 283° |
| 2026-05-05 12:51 | 51.93950 | -4.43959 | 35689 ft | 476 kts | 283° |
| 2026-05-05 12:51 | 51.94594 | -4.49228 | 35877 ft | 476 kts | 283° |
| 2026-05-05 12:52 | 51.95228 | -4.54429 | 36062 ft | 475 kts | 283° |
| 2026-05-05 12:52 | 51.95861 | -4.59651 | 35904 ft | 475 kts | 283° |
| 2026-05-05 12:52 | 51.96499 | -4.64930 | 36049 ft | 476 kts | 283° |
| 2026-05-05 12:52 | 51.97126 | -4.70141 | 36219 ft | 476 kts | 282° |
| 2026-05-05 12:53 | 51.97758 | -4.75426 | 36427 ft | 475 kts | 282° |
| 2026-05-05 12:53 | 51.98379 | -4.80631 | 36626 ft | 474 kts | 282° |
| 2026-05-05 12:53 | 51.98999 | -4.85851 | 36798 ft | 474 kts | 282° |
| 2026-05-05 12:53 | 51.99622 | -4.91125 | 36952 ft | 475 kts | 282° |
| 2026-05-05 12:54 | 52.00847 | -5.01553 | 37200 ft | 476 kts | 282° |
| 2026-05-05 12:54 | 52.01468 | -5.06883 | 37331 ft | 477 kts | 282° |
| 2026-05-05 12:55 | 52.02749 | -5.17410 | 37565 ft | 478 kts | 284° |
| 2026-05-05 12:55 | 52.03581 | -5.22577 | 37724 ft | 477 kts | 288° |
| 2026-05-05 12:55 | 52.04573 | -5.27704 | 37873 ft | 476 kts | 289° |
| 2026-05-05 12:55 | 52.05595 | -5.32750 | 37995 ft | 476 kts | 290° |
| 2026-05-05 12:56 | 52.06641 | -5.37883 | 38037 ft | 478 kts | 290° |
| 2026-05-05 12:56 | 52.08707 | -5.48097 | 38023 ft | 479 kts | 289° |
| 2026-05-05 12:57 | 52.10759 | -5.58354 | 38036 ft | 478 kts | 290° |
| 2026-05-05 12:57 | 52.12789 | -5.68569 | 38045 ft | 478 kts | 289° |
| 2026-05-05 12:58 | 52.14813 | -5.78818 | 38040 ft | 478 kts | 288° |
| 2026-05-05 12:58 | 52.16438 | -5.89313 | 38041 ft | 479 kts | 282° |
| 2026-05-05 12:59 | 52.17604 | -5.99947 | 38038 ft | 480 kts | 281° |
| 2026-05-05 12:59 | 52.18736 | -6.10655 | 38056 ft | 481 kts | 281° |
| 2026-05-05 13:00 | 52.20428 | -6.26703 | 38064 ft | 481 kts | 281° |
| 2026-05-05 13:01 | 52.22656 | -6.48109 | 38052 ft | 481 kts | 282° |
| 2026-05-05 13:01 | 52.23756 | -6.58795 | 38064 ft | 482 kts | 282° |
| 2026-05-05 13:02 | 52.24848 | -6.69524 | 38054 ft | 481 kts | 281° |
| 2026-05-05 13:02 | 52.25930 | -6.80272 | 38074 ft | 482 kts | 281° |
| 2026-05-05 13:03 | 52.27001 | -6.91007 | 38069 ft | 482 kts | 281° |
| 2026-05-05 13:03 | 52.28070 | -7.01808 | 38086 ft | 482 kts | 281° |
| 2026-05-05 13:04 | 52.29125 | -7.12571 | 38070 ft | 482 kts | 281° |
| 2026-05-05 13:04 | 52.30165 | -7.23295 | 38099 ft | 482 kts | 281° |
| 2026-05-05 13:05 | 52.31205 | -7.34117 | 38070 ft | 482 kts | 281° |
| 2026-05-05 13:05 | 52.32228 | -7.44883 | 38060 ft | 482 kts | 281° |
| 2026-05-05 13:06 | 52.33244 | -7.55674 | 38071 ft | 482 kts | 281° |
| 2026-05-05 13:06 | 52.34246 | -7.66443 | 38048 ft | 481 kts | 281° |
| 2026-05-05 13:07 | 52.35241 | -7.77225 | 38078 ft | 482 kts | 281° |
| 2026-05-05 13:07 | 52.36223 | -7.87982 | 38089 ft | 481 kts | 281° |
| 2026-05-05 13:08 | 52.37194 | -7.98751 | 38065 ft | 481 kts | 281° |
| 2026-05-05 13:08 | 52.38163 | -8.09603 | 38077 ft | 482 kts | 281° |
| 2026-05-05 13:09 | 52.39111 | -8.20365 | 38076 ft | 481 kts | 281° |
| 2026-05-05 13:09 | 52.40085 | -8.31156 | 38073 ft | 480 kts | 283° |
| 2026-05-05 13:10 | 52.41242 | -8.41838 | 38074 ft | 480 kts | 283° |
| 2026-05-05 13:10 | 52.42407 | -8.52545 | 38082 ft | 480 kts | 283° |
| 2026-05-05 13:11 | 52.43546 | -8.63273 | 38058 ft | 479 kts | 283° |
| 2026-05-05 13:11 | 52.44671 | -8.74032 | 38114 ft | 480 kts | 282° |
| 2026-05-05 13:12 | 52.45776 | -8.84731 | 38045 ft | 479 kts | 282° |
| 2026-05-05 13:12 | 52.46874 | -8.95467 | 38085 ft | 479 kts | 282° |
| 2026-05-05 13:13 | 52.47960 | -9.06180 | 38087 ft | 478 kts | 282° |
| 2026-05-05 13:13 | 52.49033 | -9.16872 | 38090 ft | 477 kts | 282° |
| 2026-05-05 13:14 | 52.50098 | -9.27577 | 38103 ft | 477 kts | 282° |
| 2026-05-05 13:14 | 52.51148 | -9.38245 | 38095 ft | 477 kts | 282° |
| 2026-05-05 13:15 | 52.52193 | -9.48982 | 38070 ft | 477 kts | 282° |
| 2026-05-05 13:15 | 52.53223 | -9.59669 | 38098 ft | 477 kts | 282° |
| 2026-05-05 13:16 | 52.54297 | -9.70345 | 38122 ft | 475 kts | 284° |
| 2026-05-05 13:16 | 52.55776 | -9.80858 | 38104 ft | 473 kts | 287° |
| 2026-05-05 13:17 | 52.57309 | -9.91307 | 38103 ft | 473 kts | 287° |
| 2026-05-05 13:17 | 52.58828 | -10.01760 | 38095 ft | 472 kts | 286° |
| 2026-05-05 13:18 | 52.60339 | -10.12276 | 38151 ft | 472 kts | 286° |
| 2026-05-05 13:18 | 52.61831 | -10.22754 | 38107 ft | 472 kts | 286° |
| 2026-05-05 13:19 | 52.63307 | -10.33187 | 38138 ft | 471 kts | 286° |
| 2026-05-05 13:19 | 52.64770 | -10.43600 | 38104 ft | 470 kts | 286° |
| 2026-05-05 13:20 | 52.66232 | -10.54079 | 38140 ft | 470 kts | 286° |
| 2026-05-05 13:20 | 52.67683 | -10.64549 | 38138 ft | 470 kts | 286° |
| 2026-05-05 13:21 | 52.69117 | -10.74974 | 38130 ft | 469 kts | 285° |
| 2026-05-05 13:21 | 52.70539 | -10.85386 | 38122 ft | 469 kts | 285° |
| 2026-05-05 13:22 | 52.71960 | -10.95870 | 38131 ft | 468 kts | 285° |
| 2026-05-05 13:22 | 52.73359 | -11.06259 | 38143 ft | 467 kts | 285° |
| 2026-05-05 13:23 | 52.74750 | -11.16662 | 38135 ft | 467 kts | 285° |
| 2026-05-05 13:23 | 52.76133 | -11.27080 | 38140 ft | 467 kts | 285° |
| 2026-05-05 13:24 | 52.77509 | -11.37519 | 38136 ft | 466 kts | 285° |
| 2026-05-05 13:24 | 52.78865 | -11.47886 | 38136 ft | 465 kts | 285° |
| 2026-05-05 13:25 | 52.80220 | -11.58318 | 38140 ft | 464 kts | 285° |
| 2026-05-05 13:25 | 52.81560 | -11.68717 | 38145 ft | 464 kts | 284° |
| 2026-05-05 13:26 | 52.82893 | -11.79143 | 38158 ft | 464 kts | 284° |
| 2026-05-05 13:26 | 52.84213 | -11.89531 | 38148 ft | 464 kts | 284° |
| 2026-05-05 13:27 | 52.85517 | -11.99873 | 38147 ft | 463 kts | 284° |
| 2026-05-05 13:27 | 52.86813 | -12.10246 | 38146 ft | 463 kts | 284° |
| 2026-05-05 13:28 | 52.88104 | -12.20658 | 38145 ft | 462 kts | 284° |
| 2026-05-05 13:28 | 52.89385 | -12.31076 | 38152 ft | 462 kts | 284° |
| 2026-05-05 13:29 | 52.90648 | -12.41447 | 38150 ft | 462 kts | 284° |
| 2026-05-05 13:29 | 52.91715 | -12.51853 | 38153 ft | 462 kts | 279° |
| 2026-05-05 13:30 | 52.92246 | -12.62432 | 38156 ft | 462 kts | 276° |
| 2026-05-05 13:30 | 52.92686 | -12.73033 | 38160 ft | 462 kts | 275° |
| 2026-05-05 13:31 | 52.93120 | -12.83592 | 38161 ft | 462 kts | 275° |
| 2026-05-05 13:31 | 52.93549 | -12.94223 | 38167 ft | 462 kts | 275° |
| 2026-05-05 13:32 | 52.93968 | -13.04811 | 38170 ft | 461 kts | 275° |
| 2026-05-05 13:32 | 52.94378 | -13.15344 | 38168 ft | 460 kts | 275° |
| 2026-05-05 13:33 | 52.94777 | -13.25864 | 38167 ft | 459 kts | 275° |
| 2026-05-05 13:33 | 52.95166 | -13.36351 | 38165 ft | 459 kts | 275° |
| 2026-05-05 13:34 | 52.95549 | -13.46932 | 38163 ft | 459 kts | 275° |
| 2026-05-05 13:34 | 52.95918 | -13.57402 | 38162 ft | 459 kts | 275° |
| 2026-05-05 13:35 | 52.96278 | -13.67895 | 38167 ft | 458 kts | 274° |
| 2026-05-05 13:35 | 52.96632 | -13.78441 | 38165 ft | 457 kts | 274° |
| 2026-05-05 13:36 | 52.96973 | -13.88930 | 38166 ft | 457 kts | 274° |
| 2026-05-05 13:36 | 52.97305 | -13.99410 | 38169 ft | 456 kts | 274° |
| 2026-05-05 13:37 | 52.97626 | -14.09811 | 38166 ft | 456 kts | 274° |
| 2026-05-05 13:37 | 52.97939 | -14.20259 | 38164 ft | 456 kts | 274° |
| 2026-05-05 13:38 | 52.98243 | -14.30752 | 38166 ft | 456 kts | 274° |
| 2026-05-05 13:38 | 52.98537 | -14.41219 | 38168 ft | 455 kts | 274° |
| 2026-05-05 13:39 | 52.98821 | -14.51620 | 38169 ft | 454 kts | 274° |
| 2026-05-05 13:39 | 52.99094 | -14.62019 | 38173 ft | 453 kts | 274° |
| 2026-05-05 13:40 | 52.99360 | -14.72505 | 38174 ft | 453 kts | 273° |
| 2026-05-05 13:40 | 52.99613 | -14.82860 | 38178 ft | 453 kts | 273° |
| 2026-05-05 13:41 | 53.00113 | -14.93249 | 38185 ft | 451 kts | 278° |
| 2026-05-05 13:41 | 53.01244 | -15.03428 | 38180 ft | 451 kts | 284° |
| 2026-05-05 13:42 | 53.02998 | -15.13325 | 38177 ft | 451 kts | 290° |
| 2026-05-05 13:42 | 53.05164 | -15.23076 | 38185 ft | 450 kts | 291° |
| 2026-05-05 13:43 | 53.07334 | -15.32750 | 38181 ft | 450 kts | 291° |
| 2026-05-05 13:43 | 53.09501 | -15.42479 | 38189 ft | 449 kts | 291° |
| 2026-05-05 13:44 | 53.11649 | -15.52191 | 38185 ft | 449 kts | 290° |
| 2026-05-05 13:44 | 53.13780 | -15.61874 | 38184 ft | 448 kts | 290° |
| 2026-05-05 13:45 | 53.15906 | -15.71582 | 38194 ft | 448 kts | 290° |
| 2026-05-05 13:45 | 53.18029 | -15.81329 | 38178 ft | 448 kts | 290° |
| 2026-05-05 13:46 | 53.20138 | -15.91050 | 38181 ft | 448 kts | 290° |
| 2026-05-05 13:46 | 53.22233 | -16.00757 | 38191 ft | 448 kts | 290° |
| 2026-05-05 13:47 | 53.24331 | -16.10518 | 38191 ft | 448 kts | 290° |
| 2026-05-05 13:47 | 53.26417 | -16.20277 | 38196 ft | 447 kts | 290° |
| 2026-05-05 13:48 | 53.28488 | -16.30010 | 38194 ft | 447 kts | 290° |
| 2026-05-05 13:48 | 53.30547 | -16.39731 | 38190 ft | 447 kts | 290° |
| 2026-05-05 13:49 | 53.32605 | -16.49491 | 38199 ft | 447 kts | 289° |
| 2026-05-05 13:49 | 53.34658 | -16.59280 | 38197 ft | 446 kts | 289° |
| 2026-05-05 13:50 | 53.36696 | -16.69050 | 38206 ft | 446 kts | 289° |
| 2026-05-05 13:50 | 53.38720 | -16.78792 | 38196 ft | 446 kts | 289° |
| 2026-05-05 13:51 | 53.40737 | -16.88552 | 38211 ft | 446 kts | 289° |
| 2026-05-05 13:51 | 53.42758 | -16.98375 | 38208 ft | 447 kts | 289° |
| 2026-05-05 13:52 | 53.44765 | -17.08176 | 38207 ft | 447 kts | 289° |
| 2026-05-05 13:52 | 53.46757 | -17.17962 | 38212 ft | 446 kts | 289° |
| 2026-05-05 13:53 | 53.48745 | -17.27777 | 38217 ft | 446 kts | 289° |
| 2026-05-05 13:53 | 53.50724 | -17.37588 | 38216 ft | 445 kts | 289° |
| 2026-05-05 13:54 | 53.52700 | -17.47437 | 38214 ft | 445 kts | 289° |
| 2026-05-05 13:54 | 53.54652 | -17.57212 | 38214 ft | 445 kts | 289° |
| 2026-05-05 13:55 | 53.56609 | -17.67065 | 38217 ft | 444 kts | 288° |
| 2026-05-05 13:55 | 53.58549 | -17.76882 | 38223 ft | 445 kts | 288° |
| 2026-05-05 13:56 | 53.60485 | -17.86724 | 38222 ft | 445 kts | 288° |
| 2026-05-05 13:56 | 53.62412 | -17.96578 | 38226 ft | 445 kts | 288° |
| 2026-05-05 13:57 | 53.64333 | -18.06451 | 38224 ft | 445 kts | 288° |
| 2026-05-05 13:57 | 53.66243 | -18.16315 | 38230 ft | 445 kts | 288° |
| 2026-05-05 13:58 | 53.68147 | -18.26197 | 38225 ft | 444 kts | 288° |
| 2026-05-05 13:58 | 53.70036 | -18.36053 | 38232 ft | 444 kts | 288° |
| 2026-05-05 13:59 | 53.72851 | -18.50832 | 38232 ft | 444 kts | 288° |
| 2026-05-05 14:00 | 53.75665 | -18.65736 | 38240 ft | 444 kts | 288° |
| 2026-05-05 14:00 | 53.77513 | -18.75586 | 38239 ft | 444 kts | 288° |
| 2026-05-05 14:01 | 53.79363 | -18.85492 | 38238 ft | 444 kts | 288° |
| 2026-05-05 14:01 | 53.81215 | -18.95465 | 38242 ft | 444 kts | 288° |
| 2026-05-05 14:02 | 53.83045 | -19.05371 | 38246 ft | 445 kts | 287° |
| 2026-05-05 14:02 | 53.84874 | -19.15330 | 38246 ft | 445 kts | 287° |
| 2026-05-05 14:03 | 53.86693 | -19.25286 | 38248 ft | 444 kts | 287° |
| 2026-05-05 14:03 | 53.88500 | -19.35233 | 38247 ft | 444 kts | 287° |
| 2026-05-05 14:04 | 53.90300 | -19.45198 | 38247 ft | 444 kts | 287° |
| 2026-05-05 14:04 | 53.92091 | -19.55160 | 38247 ft | 445 kts | 287° |
| 2026-05-05 14:05 | 53.93883 | -19.65195 | 38247 ft | 445 kts | 287° |
| 2026-05-05 14:05 | 53.95661 | -19.75212 | 38258 ft | 446 kts | 287° |
| 2026-05-05 14:06 | 53.97440 | -19.85287 | 38250 ft | 446 kts | 287° |
| 2026-05-05 14:06 | 53.99093 | -19.95371 | 38262 ft | 446 kts | 283° |
| 2026-05-05 14:07 | 54.00163 | -20.05657 | 38259 ft | 446 kts | 277° |
| 2026-05-05 14:07 | 54.00678 | -20.16130 | 38260 ft | 446 kts | 274° |
| 2026-05-05 14:08 | 54.01090 | -20.26596 | 38268 ft | 446 kts | 275° |
| 2026-05-05 14:08 | 54.01497 | -20.37109 | 38267 ft | 446 kts | 275° |
| 2026-05-05 14:09 | 54.01894 | -20.47550 | 38265 ft | 447 kts | 274° |
| 2026-05-05 14:09 | 54.02287 | -20.58113 | 38270 ft | 447 kts | 274° |
| 2026-05-05 14:10 | 54.02666 | -20.68578 | 38276 ft | 447 kts | 274° |
| 2026-05-05 14:10 | 54.03040 | -20.79144 | 38278 ft | 447 kts | 274° |
| 2026-05-05 14:11 | 54.03401 | -20.89585 | 38284 ft | 446 kts | 274° |
| 2026-05-05 14:11 | 54.03756 | -21.00098 | 38279 ft | 446 kts | 274° |
| 2026-05-05 14:12 | 54.04099 | -21.10570 | 38276 ft | 446 kts | 274° |
| 2026-05-05 14:12 | 54.04435 | -21.21082 | 38287 ft | 446 kts | 274° |
| 2026-05-05 14:13 | 54.04759 | -21.31526 | 38287 ft | 447 kts | 274° |
| 2026-05-05 14:13 | 54.05077 | -21.42071 | 38285 ft | 447 kts | 274° |
| 2026-05-05 14:14 | 54.05384 | -21.52576 | 38289 ft | 446 kts | 274° |
| 2026-05-05 14:14 | 54.05682 | -21.63071 | 38292 ft | 446 kts | 274° |
| 2026-05-05 14:15 | 54.05971 | -21.73539 | 38290 ft | 445 kts | 273° |
| 2026-05-05 14:15 | 54.06251 | -21.84038 | 38300 ft | 444 kts | 273° |
| 2026-05-05 14:16 | 54.06521 | -21.94447 | 38291 ft | 445 kts | 273° |
| 2026-05-05 14:16 | 54.06783 | -22.04942 | 38298 ft | 446 kts | 273° |
| 2026-05-05 14:17 | 54.07036 | -22.15494 | 38308 ft | 446 kts | 273° |
| 2026-05-05 14:17 | 54.07279 | -22.25998 | 38302 ft | 446 kts | 273° |
| 2026-05-05 14:18 | 54.07513 | -22.36487 | 38290 ft | 445 kts | 273° |
| 2026-05-05 14:18 | 54.07737 | -22.46953 | 38305 ft | 445 kts | 273° |
| 2026-05-05 14:19 | 54.07954 | -22.57433 | 38304 ft | 444 kts | 273° |
| 2026-05-05 14:19 | 54.08160 | -22.67883 | 38305 ft | 444 kts | 272° |
| 2026-05-05 14:20 | 54.08357 | -22.78354 | 38296 ft | 444 kts | 272° |
| 2026-05-05 14:20 | 54.08545 | -22.88817 | 38298 ft | 444 kts | 272° |
| 2026-05-05 14:21 | 54.08723 | -22.99286 | 38298 ft | 445 kts | 272° |
| 2026-05-05 14:21 | 54.08894 | -23.09757 | 38300 ft | 445 kts | 272° |
| 2026-05-05 14:22 | 54.09056 | -23.20219 | 38302 ft | 445 kts | 272° |
| 2026-05-05 14:22 | 54.09209 | -23.30762 | 38300 ft | 444 kts | 272° |
| 2026-05-05 14:23 | 54.09351 | -23.41217 | 38306 ft | 443 kts | 272° |
| 2026-05-05 14:23 | 54.09483 | -23.51595 | 38302 ft | 443 kts | 272° |
| 2026-05-05 14:24 | 54.09606 | -23.62039 | 38301 ft | 443 kts | 272° |
| 2026-05-05 14:24 | 54.09722 | -23.72476 | 38298 ft | 443 kts | 272° |
| 2026-05-05 14:25 | 54.09829 | -23.82968 | 38313 ft | 443 kts | 271° |
| 2026-05-05 14:25 | 54.09926 | -23.93377 | 38311 ft | 444 kts | 271° |
| 2026-05-05 14:26 | 54.10015 | -24.03913 | 38317 ft | 444 kts | 271° |
| 2026-05-05 14:26 | 54.10093 | -24.14372 | 38321 ft | 443 kts | 271° |
| 2026-05-05 14:27 | 54.10162 | -24.24828 | 38325 ft | 443 kts | 272° |
| 2026-05-05 14:27 | 54.10223 | -24.35269 | 38324 ft | 442 kts | 272° |
| 2026-05-05 14:28 | 54.10275 | -24.45645 | 38325 ft | 442 kts | 271° |
| 2026-05-05 14:28 | 54.10318 | -24.56114 | 38323 ft | 442 kts | 271° |
| 2026-05-05 14:29 | 54.10352 | -24.66531 | 38327 ft | 442 kts | 271° |
| 2026-05-05 14:29 | 54.10377 | -24.76968 | 38320 ft | 447 kts | 271° |
| 2026-05-05 14:30 | 54.10392 | -24.87555 | 38326 ft | 450 kts | 271° |
| 2026-05-05 14:30 | 54.10399 | -24.98188 | 38324 ft | 450 kts | 271° |
| 2026-05-05 14:31 | 54.10396 | -25.08832 | 38334 ft | 449 kts | 271° |
| 2026-05-05 14:31 | 54.10384 | -25.19349 | 38335 ft | 449 kts | 271° |
| 2026-05-05 14:32 | 54.10363 | -25.29993 | 38337 ft | 449 kts | 270° |
| 2026-05-05 14:32 | 54.10332 | -25.40568 | 38336 ft | 450 kts | 270° |
| 2026-05-05 14:33 | 54.10292 | -25.51150 | 38343 ft | 450 kts | 270° |
| 2026-05-05 14:33 | 54.10242 | -25.61786 | 38340 ft | 450 kts | 270° |
| 2026-05-05 14:34 | 54.10183 | -25.72428 | 38335 ft | 451 kts | 270° |
| 2026-05-05 14:34 | 54.10114 | -25.83079 | 38340 ft | 451 kts | 270° |
| 2026-05-05 14:35 | 54.10038 | -25.93685 | 38338 ft | 450 kts | 269° |
| 2026-05-05 14:35 | 54.09951 | -26.04246 | 38345 ft | 450 kts | 269° |
| 2026-05-05 14:36 | 54.09854 | -26.14843 | 38344 ft | 449 kts | 269° |
| 2026-05-05 14:36 | 54.09748 | -26.25502 | 38343 ft | 449 kts | 269° |
| 2026-05-05 14:37 | 54.09633 | -26.36089 | 38342 ft | 449 kts | 269° |
| 2026-05-05 14:37 | 54.09510 | -26.46660 | 38350 ft | 449 kts | 269° |
| 2026-05-05 14:38 | 54.09376 | -26.57245 | 38347 ft | 449 kts | 269° |
| 2026-05-05 14:38 | 54.09233 | -26.67830 | 38355 ft | 449 kts | 269° |
| 2026-05-05 14:39 | 54.09082 | -26.78406 | 38351 ft | 449 kts | 269° |
| 2026-05-05 14:39 | 54.08920 | -26.89031 | 38352 ft | 449 kts | 269° |
| 2026-05-05 14:40 | 54.08749 | -26.99602 | 38348 ft | 450 kts | 269° |
| 2026-05-05 14:40 | 54.08569 | -27.10226 | 38342 ft | 451 kts | 269° |
| 2026-05-05 14:41 | 54.08379 | -27.20869 | 38345 ft | 451 kts | 269° |
| 2026-05-05 14:41 | 54.08181 | -27.31463 | 38345 ft | 451 kts | 269° |
| 2026-05-05 14:42 | 54.07972 | -27.42066 | 38344 ft | 451 kts | 269° |
| 2026-05-05 14:42 | 54.07754 | -27.52703 | 38341 ft | 451 kts | 269° |
| 2026-05-05 14:43 | 54.07527 | -27.63308 | 38340 ft | 450 kts | 269° |
| 2026-05-05 14:43 | 54.07290 | -27.73948 | 38342 ft | 450 kts | 268° |
| 2026-05-05 14:44 | 54.07045 | -27.84556 | 38341 ft | 451 kts | 268° |
| 2026-05-05 14:44 | 54.06789 | -27.95168 | 38345 ft | 451 kts | 268° |
| 2026-05-05 14:45 | 54.06524 | -28.05807 | 38342 ft | 451 kts | 268° |
| 2026-05-05 14:45 | 54.06250 | -28.16395 | 38342 ft | 451 kts | 268° |
| 2026-05-05 14:46 | 54.05966 | -28.27046 | 38344 ft | 451 kts | 268° |
| 2026-05-05 14:46 | 54.05674 | -28.37624 | 38343 ft | 451 kts | 268° |
| 2026-05-05 14:47 | 54.05372 | -28.48258 | 38346 ft | 451 kts | 268° |
| 2026-05-05 14:47 | 54.05061 | -28.58862 | 38340 ft | 452 kts | 268° |
| 2026-05-05 14:48 | 54.04738 | -28.69520 | 38344 ft | 452 kts | 267° |
| 2026-05-05 14:48 | 54.04406 | -28.80153 | 38343 ft | 452 kts | 267° |
| 2026-05-05 14:49 | 54.04065 | -28.90817 | 38343 ft | 453 kts | 267° |
| 2026-05-05 14:49 | 54.03717 | -29.01421 | 38346 ft | 453 kts | 267° |
| 2026-05-05 14:50 | 54.03357 | -29.12090 | 38352 ft | 452 kts | 267° |
| 2026-05-05 14:50 | 54.02987 | -29.22705 | 38360 ft | 452 kts | 267° |
| 2026-05-05 14:51 | 54.02609 | -29.33291 | 38357 ft | 452 kts | 268° |
| 2026-05-05 14:51 | 54.02221 | -29.43928 | 38364 ft | 452 kts | 267° |
| 2026-05-05 14:52 | 54.01825 | -29.54554 | 38363 ft | 452 kts | 267° |
| 2026-05-05 14:52 | 54.01419 | -29.65151 | 38365 ft | 452 kts | 266° |
| 2026-05-05 14:53 | 54.01000 | -29.75792 | 38364 ft | 453 kts | 266° |
| 2026-05-05 14:53 | 54.00573 | -29.86401 | 38364 ft | 453 kts | 266° |
| 2026-05-05 14:54 | 54.00194 | -29.97053 | 38364 ft | 452 kts | 269° |
| 2026-05-05 14:54 | 54.00332 | -30.07649 | 38368 ft | 451 kts | 274° |
| 2026-05-05 14:55 | 54.00760 | -30.18265 | 38387 ft | 452 kts | 274° |
| 2026-05-05 14:55 | 54.01185 | -30.28882 | 38372 ft | 451 kts | 275° |
| 2026-05-05 14:56 | 54.01598 | -30.39462 | 38372 ft | 452 kts | 274° |
| 2026-05-05 14:56 | 54.01999 | -30.50041 | 38368 ft | 452 kts | 275° |
| 2026-05-05 14:57 | 54.02392 | -30.60687 | 38369 ft | 452 kts | 275° |
| 2026-05-05 14:57 | 54.02775 | -30.71314 | 38371 ft | 453 kts | 274° |
| 2026-05-05 14:58 | 54.03151 | -30.81959 | 38368 ft | 453 kts | 274° |
| 2026-05-05 14:58 | 54.03518 | -30.92626 | 38370 ft | 454 kts | 274° |
| 2026-05-05 14:59 | 54.03873 | -31.03259 | 38370 ft | 453 kts | 274° |
| 2026-05-05 14:59 | 54.04219 | -31.13942 | 38362 ft | 453 kts | 274° |
| 2026-05-05 15:00 | 54.04499 | -31.22817 | 38365 ft | 453 kts | 274° |
| 2026-05-05 15:00 | 54.04885 | -31.35276 | 38365 ft | 453 kts | 274° |
| 2026-05-05 15:01 | 54.05203 | -31.45913 | 38362 ft | 453 kts | 274° |
| 2026-05-05 15:01 | 54.05511 | -31.56543 | 38363 ft | 453 kts | 274° |
| 2026-05-05 15:02 | 54.05811 | -31.67236 | 38369 ft | 454 kts | 273° |
| 2026-05-05 15:02 | 54.06101 | -31.77923 | 38372 ft | 454 kts | 273° |
| 2026-05-05 15:03 | 54.06381 | -31.88604 | 38366 ft | 454 kts | 274° |
| 2026-05-05 15:03 | 54.06652 | -31.99267 | 38364 ft | 454 kts | 274° |
| 2026-05-05 15:04 | 54.06917 | -32.09985 | 38360 ft | 455 kts | 273° |
| 2026-05-05 15:04 | 54.07169 | -32.20681 | 38363 ft | 454 kts | 274° |
| 2026-05-05 15:05 | 54.07530 | -32.36746 | 38360 ft | 453 kts | 274° |
| 2026-05-05 15:06 | 54.07758 | -32.47399 | 38361 ft | 453 kts | 274° |
| 2026-05-05 15:06 | 54.07977 | -32.58065 | 38363 ft | 453 kts | 274° |
| 2026-05-05 15:07 | 54.08188 | -32.68744 | 38361 ft | 454 kts | 273° |
| 2026-05-05 15:07 | 54.08389 | -32.79489 | 38364 ft | 456 kts | 273° |
| 2026-05-05 15:08 | 54.08580 | -32.90229 | 38362 ft | 456 kts | 273° |
| 2026-05-05 15:08 | 54.08762 | -33.00983 | 38363 ft | 456 kts | 273° |
| 2026-05-05 15:09 | 54.08934 | -33.11704 | 38366 ft | 455 kts | 273° |
| 2026-05-05 15:09 | 54.09096 | -33.22407 | 38368 ft | 454 kts | 273° |
| 2026-05-05 15:10 | 54.09250 | -33.33118 | 38369 ft | 454 kts | 273° |
| 2026-05-05 15:10 | 54.09394 | -33.43826 | 38368 ft | 453 kts | 273° |
| 2026-05-05 15:11 | 54.09528 | -33.54505 | 38365 ft | 454 kts | 273° |
| 2026-05-05 15:11 | 54.09651 | -33.65153 | 38361 ft | 453 kts | 272° |
| 2026-05-05 15:12 | 54.09766 | -33.75893 | 38354 ft | 453 kts | 272° |
| 2026-05-05 15:12 | 54.09871 | -33.86564 | 38355 ft | 453 kts | 272° |
| 2026-05-05 15:13 | 54.09967 | -33.97195 | 38350 ft | 453 kts | 272° |
| 2026-05-05 15:13 | 54.10053 | -34.07890 | 38352 ft | 454 kts | 273° |
| 2026-05-05 15:14 | 54.10130 | -34.18609 | 38354 ft | 453 kts | 273° |
| 2026-05-05 15:14 | 54.10198 | -34.29256 | 38359 ft | 452 kts | 272° |
| 2026-05-05 15:15 | 54.10255 | -34.39894 | 38356 ft | 451 kts | 272° |
| 2026-05-05 15:15 | 54.10304 | -34.50560 | 38357 ft | 451 kts | 273° |
| 2026-05-05 15:16 | 54.10342 | -34.61139 | 38360 ft | 450 kts | 273° |
| 2026-05-05 15:16 | 54.10372 | -34.71782 | 38360 ft | 450 kts | 272° |
| 2026-05-05 15:17 | 54.10393 | -34.82384 | 38356 ft | 450 kts | 272° |
| 2026-05-05 15:17 | 54.10404 | -34.93007 | 38359 ft | 450 kts | 272° |
| 2026-05-05 15:18 | 54.10405 | -35.03597 | 38360 ft | 449 kts | 272° |
| 2026-05-05 15:18 | 54.10397 | -35.14235 | 38360 ft | 448 kts | 272° |
| 2026-05-05 15:19 | 54.10379 | -35.24772 | 38358 ft | 448 kts | 272° |
| 2026-05-05 15:19 | 54.10354 | -35.35361 | 38355 ft | 449 kts | 272° |
| 2026-05-05 15:20 | 54.10318 | -35.45900 | 38343 ft | 448 kts | 272° |
| 2026-05-05 15:20 | 54.10273 | -35.56496 | 38344 ft | 447 kts | 272° |
| 2026-05-05 15:21 | 54.10220 | -35.66988 | 38346 ft | 447 kts | 272° |
| 2026-05-05 15:21 | 54.10156 | -35.77554 | 38339 ft | 446 kts | 272° |
| 2026-05-05 15:22 | 54.10084 | -35.88049 | 38340 ft | 446 kts | 272° |
| 2026-05-05 15:22 | 54.10003 | -35.98579 | 38339 ft | 445 kts | 272° |
| 2026-05-05 15:23 | 54.09913 | -36.09087 | 38353 ft | 445 kts | 272° |
| 2026-05-05 15:23 | 54.09813 | -36.19559 | 38357 ft | 444 kts | 272° |
| 2026-05-05 15:24 | 54.09703 | -36.29987 | 38348 ft | 442 kts | 272° |
| 2026-05-05 15:24 | 54.09587 | -36.40429 | 38343 ft | 442 kts | 272° |
| 2026-05-05 15:25 | 54.09462 | -36.50849 | 38344 ft | 441 kts | 272° |
| 2026-05-05 15:25 | 54.09329 | -36.61192 | 38343 ft | 440 kts | 272° |
| 2026-05-05 15:26 | 54.09185 | -36.71555 | 38360 ft | 439 kts | 272° |
| 2026-05-05 15:26 | 54.09032 | -36.81884 | 38347 ft | 438 kts | 272° |
| 2026-05-05 15:27 | 54.08872 | -36.92264 | 38341 ft | 437 kts | 272° |
| 2026-05-05 15:27 | 54.08704 | -37.02528 | 38337 ft | 436 kts | 272° |
| 2026-05-05 15:28 | 54.08528 | -37.12797 | 38340 ft | 435 kts | 272° |
| 2026-05-05 15:28 | 54.08343 | -37.23005 | 38318 ft | 433 kts | 272° |
| 2026-05-05 15:29 | 54.08150 | -37.33170 | 38320 ft | 433 kts | 272° |
| 2026-05-05 15:29 | 54.07949 | -37.43339 | 38334 ft | 431 kts | 272° |
| 2026-05-05 15:30 | 54.07740 | -37.53507 | 38322 ft | 430 kts | 272° |
| 2026-05-05 15:30 | 54.07523 | -37.63664 | 38329 ft | 429 kts | 272° |
| 2026-05-05 15:31 | 54.07298 | -37.73775 | 38311 ft | 429 kts | 272° |
| 2026-05-05 15:31 | 54.07063 | -37.83899 | 38320 ft | 429 kts | 272° |
| 2026-05-05 15:32 | 54.06820 | -37.93968 | 38320 ft | 427 kts | 272° |
| 2026-05-05 15:32 | 54.06573 | -38.04011 | 38334 ft | 426 kts | 272° |
| 2026-05-05 15:33 | 54.06316 | -38.14000 | 38342 ft | 425 kts | 272° |
| 2026-05-05 15:33 | 54.06049 | -38.23988 | 38306 ft | 424 kts | 272° |
| 2026-05-05 15:34 | 54.05777 | -38.34015 | 38305 ft | 424 kts | 272° |
| 2026-05-05 15:34 | 54.05497 | -38.43983 | 38312 ft | 422 kts | 272° |
| 2026-05-05 15:35 | 54.05210 | -38.53898 | 38302 ft | 421 kts | 272° |
| 2026-05-05 15:35 | 54.04916 | -38.63752 | 38313 ft | 421 kts | 272° |
| 2026-05-05 15:36 | 54.04613 | -38.73649 | 38305 ft | 420 kts | 271° |
| 2026-05-05 15:36 | 54.04301 | -38.83546 | 38284 ft | 421 kts | 272° |
| 2026-05-05 15:37 | 54.03984 | -38.93441 | 38300 ft | 420 kts | 271° |
| 2026-05-05 15:37 | 54.03657 | -39.03279 | 38280 ft | 419 kts | 271° |
| 2026-05-05 15:38 | 54.03321 | -39.13127 | 38263 ft | 420 kts | 272° |
| 2026-05-05 15:38 | 54.02982 | -39.23004 | 38258 ft | 420 kts | 271° |
| 2026-05-05 15:39 | 54.02627 | -39.32900 | 38245 ft | 420 kts | 271° |
| 2026-05-05 15:39 | 54.02270 | -39.42765 | 38240 ft | 421 kts | 271° |
| 2026-05-05 15:40 | 54.01902 | -39.52619 | 38233 ft | 422 kts | 271° |
| 2026-05-05 15:40 | 54.01523 | -39.62592 | 38234 ft | 422 kts | 271° |
| 2026-05-05 15:41 | 54.01136 | -39.72517 | 38233 ft | 423 kts | 270° |
| 2026-05-05 15:41 | 54.00739 | -39.82419 | 38229 ft | 424 kts | 270° |
| 2026-05-05 15:42 | 54.00332 | -39.92352 | 38225 ft | 423 kts | 269° |
| 2026-05-05 15:42 | 53.99909 | -40.02301 | 38233 ft | 425 kts | 269° |
| 2026-05-05 15:43 | 53.99346 | -40.12258 | 38239 ft | 425 kts | 268° |
| 2026-05-05 15:43 | 53.98761 | -40.22158 | 38228 ft | 424 kts | 268° |
| 2026-05-05 15:44 | 53.98174 | -40.32084 | 38236 ft | 422 kts | 268° |
| 2026-05-05 15:44 | 53.97585 | -40.41942 | 38217 ft | 423 kts | 268° |
| 2026-05-05 15:45 | 53.96983 | -40.51851 | 38220 ft | 421 kts | 268° |
| 2026-05-05 15:45 | 53.96376 | -40.61734 | 38205 ft | 422 kts | 268° |
| 2026-05-05 15:46 | 53.95765 | -40.71576 | 38216 ft | 420 kts | 266° |
| 2026-05-05 15:46 | 53.95147 | -40.81376 | 38218 ft | 420 kts | 266° |
| 2026-05-05 15:47 | 53.94524 | -40.91120 | 38207 ft | 419 kts | 266° |
| 2026-05-05 15:47 | 53.93891 | -41.00910 | 38189 ft | 418 kts | 266° |
| 2026-05-05 15:48 | 53.93253 | -41.10673 | 38188 ft | 417 kts | 266° |
| 2026-05-05 15:48 | 53.92600 | -41.20459 | 38181 ft | 418 kts | 266° |
| 2026-05-05 15:49 | 53.91947 | -41.30203 | 38178 ft | 420 kts | 265° |
| 2026-05-05 15:49 | 53.91285 | -41.39942 | 38170 ft | 419 kts | 265° |
| 2026-05-05 15:50 | 53.90611 | -41.49724 | 38168 ft | 419 kts | 266° |
| 2026-05-05 15:50 | 53.89926 | -41.59525 | 38165 ft | 420 kts | 266° |
| 2026-05-05 15:51 | 53.89237 | -41.69318 | 38160 ft | 419 kts | 265° |
| 2026-05-05 15:51 | 53.88544 | -41.79033 | 38155 ft | 419 kts | 265° |
| 2026-05-05 15:52 | 53.87838 | -41.88764 | 38140 ft | 418 kts | 265° |
| 2026-05-05 15:52 | 53.87128 | -41.98508 | 38130 ft | 420 kts | 265° |
| 2026-05-05 15:53 | 53.86407 | -42.08263 | 38123 ft | 419 kts | 264° |
| 2026-05-05 15:53 | 53.85680 | -42.18034 | 38122 ft | 418 kts | 264° |
| 2026-05-05 15:54 | 53.84946 | -42.27751 | 38114 ft | 419 kts | 264° |
| 2026-05-05 15:54 | 53.84201 | -42.37495 | 38113 ft | 419 kts | 264° |
| 2026-05-05 15:55 | 53.83457 | -42.47187 | 38107 ft | 417 kts | 264° |
| 2026-05-05 15:55 | 53.83083 | -42.51999 | 38210 ft | 417 kts | 263° |
| 2026-05-05 15:55 | 53.82703 | -42.56844 | 38134 ft | 414 kts | 263° |
| 2026-05-05 15:56 | 53.81938 | -42.66492 | 38103 ft | 415 kts | 264° |
| 2026-05-05 15:56 | 53.81172 | -42.76114 | 38093 ft | 417 kts | 262° |
| 2026-05-05 15:57 | 53.80385 | -42.85825 | 38089 ft | 417 kts | 262° |
| 2026-05-05 15:57 | 53.79598 | -42.95463 | 38082 ft | 416 kts | 262° |
| 2026-05-05 15:58 | 53.78804 | -43.05123 | 38079 ft | 417 kts | 262° |
| 2026-05-05 15:58 | 53.78001 | -43.14774 | 38067 ft | 417 kts | 262° |
| 2026-05-05 15:59 | 53.77187 | -43.24467 | 38062 ft | 417 kts | 261° |
| 2026-05-05 15:59 | 53.76384 | -43.34094 | 38060 ft | 417 kts | 261° |
| 2026-05-05 16:00 | 53.75558 | -43.43761 | 37920 ft | 418 kts | 261° |
| 2026-05-05 16:00 | 53.74721 | -43.53493 | 38017 ft | 418 kts | 261° |
| 2026-05-05 16:01 | 53.73879 | -43.63121 | 38025 ft | 418 kts | 261° |
| 2026-05-05 16:01 | 53.73022 | -43.72789 | 38029 ft | 419 kts | 260° |
| 2026-05-05 16:02 | 53.72161 | -43.82509 | 38022 ft | 419 kts | 259° |
| 2026-05-05 16:02 | 53.71291 | -43.92211 | 38022 ft | 420 kts | 259° |
| 2026-05-05 16:03 | 53.70410 | -44.01927 | 38012 ft | 420 kts | 259° |
| 2026-05-05 16:03 | 53.69527 | -44.11573 | 38000 ft | 421 kts | 259° |
| 2026-05-05 16:04 | 53.68630 | -44.21325 | 37992 ft | 422 kts | 259° |
| 2026-05-05 16:04 | 53.67722 | -44.31078 | 37988 ft | 422 kts | 259° |
| 2026-05-05 16:05 | 53.66805 | -44.40815 | 37979 ft | 423 kts | 258° |
| 2026-05-05 16:05 | 53.65871 | -44.50594 | 37960 ft | 423 kts | 258° |
| 2026-05-05 16:06 | 53.64941 | -44.60325 | 37953 ft | 424 kts | 257° |
| 2026-05-05 16:06 | 53.63997 | -44.70121 | 37952 ft | 424 kts | 257° |
| 2026-05-05 16:07 | 53.63049 | -44.79894 | 37940 ft | 424 kts | 257° |
| 2026-05-05 16:07 | 53.62089 | -44.89662 | 37933 ft | 425 kts | 257° |
| 2026-05-05 16:08 | 53.61120 | -44.99431 | 37920 ft | 425 kts | 257° |
| 2026-05-05 16:08 | 53.60144 | -45.09170 | 37913 ft | 425 kts | 257° |
| 2026-05-05 16:09 | 53.59152 | -45.19005 | 37905 ft | 427 kts | 256° |
| 2026-05-05 16:09 | 53.58152 | -45.28768 | 37903 ft | 428 kts | 256° |
| 2026-05-05 16:10 | 53.57142 | -45.38617 | 37899 ft | 427 kts | 256° |
| 2026-05-05 16:10 | 53.56128 | -45.48407 | 37895 ft | 429 kts | 256° |
| 2026-05-05 16:11 | 53.55096 | -45.58306 | 37883 ft | 431 kts | 256° |
| 2026-05-05 16:12 | 53.53022 | -45.78027 | 37876 ft | 430 kts | 255° |
| 2026-05-05 16:13 | 53.50360 | -46.02730 | 37846 ft | 433 kts | 254° |
| 2026-05-05 16:13 | 53.49277 | -46.12637 | 37848 ft | 434 kts | 254° |
| 2026-05-05 16:14 | 53.47078 | -46.32499 | 37830 ft | 435 kts | 254° |
| 2026-05-05 16:15 | 53.44841 | -46.52469 | 37808 ft | 438 kts | 253° |
| 2026-05-05 16:16 | 53.42562 | -46.72416 | 37802 ft | 438 kts | 252° |
| 2026-05-05 16:17 | 53.40819 | -46.87483 | 37783 ft | 441 kts | 252° |
| 2026-05-05 16:18 | 53.39058 | -47.02560 | 37771 ft | 443 kts | 252° |
| 2026-05-05 16:19 | 53.37264 | -47.17706 | 37761 ft | 445 kts | 252° |
| 2026-05-05 16:19 | 53.35448 | -47.32886 | 37752 ft | 446 kts | 251° |
| 2026-05-05 16:20 | 53.32981 | -47.53202 | 37739 ft | 449 kts | 252° |
| 2026-05-05 16:22 | 53.29842 | -47.78653 | 37711 ft | 450 kts | 250° |
| 2026-05-05 16:23 | 53.27274 | -47.99101 | 37694 ft | 452 kts | 250° |
| 2026-05-05 16:23 | 53.25322 | -48.14458 | 37682 ft | 453 kts | 250° |
| 2026-05-05 16:24 | 53.23999 | -48.24746 | 37685 ft | 457 kts | 250° |
| 2026-05-05 16:25 | 53.22006 | -48.40167 | 37659 ft | 458 kts | 250° |
| 2026-05-05 16:25 | 53.19970 | -48.55713 | 37657 ft | 459 kts | 250° |
| 2026-05-05 16:26 | 53.17225 | -48.76420 | 37650 ft | 460 kts | 249° |
| 2026-05-05 16:27 | 53.15832 | -48.86807 | 37617 ft | 462 kts | 249° |
| 2026-05-05 16:27 | 53.14428 | -48.97205 | 37620 ft | 464 kts | 250° |
| 2026-05-05 16:28 | 53.13014 | -49.07632 | 37613 ft | 466 kts | 249° |
| 2026-05-05 16:28 | 53.11574 | -49.18141 | 37614 ft | 467 kts | 249° |
| 2026-05-05 16:29 | 53.10135 | -49.28595 | 37603 ft | 467 kts | 249° |
| 2026-05-05 16:29 | 53.08675 | -49.39117 | 37621 ft | 468 kts | 249° |
| 2026-05-05 16:30 | 53.07206 | -49.49620 | 37593 ft | 468 kts | 249° |
| 2026-05-05 16:30 | 53.05725 | -49.60129 | 37565 ft | 471 kts | 249° |
| 2026-05-05 16:31 | 53.04227 | -49.70690 | 37578 ft | 471 kts | 248° |
| 2026-05-05 16:31 | 53.02719 | -49.81243 | 37538 ft | 472 kts | 249° |
| 2026-05-05 16:32 | 53.01202 | -49.91777 | 37530 ft | 473 kts | 248° |
| 2026-05-05 16:32 | 52.99426 | -50.02152 | 37552 ft | 468 kts | 243° |
| 2026-05-05 16:33 | 52.97109 | -50.12154 | 37532 ft | 466 kts | 240° |
| 2026-05-05 16:33 | 52.94707 | -50.22113 | 37545 ft | 468 kts | 240° |
| 2026-05-05 16:34 | 52.92295 | -50.32081 | 37522 ft | 468 kts | 240° |
| 2026-05-05 16:34 | 52.89864 | -50.42081 | 37514 ft | 469 kts | 240° |
| 2026-05-05 16:35 | 52.87482 | -50.51849 | 37500 ft | 469 kts | 240° |
| 2026-05-05 16:35 | 52.85016 | -50.61894 | 37513 ft | 471 kts | 240° |
| 2026-05-05 16:36 | 52.82556 | -50.71891 | 37510 ft | 473 kts | 239° |
| 2026-05-05 16:36 | 52.80076 | -50.81919 | 37498 ft | 473 kts | 239° |
| 2026-05-05 16:37 | 52.77589 | -50.91930 | 37486 ft | 473 kts | 239° |
| 2026-05-05 16:37 | 52.75090 | -51.01936 | 37475 ft | 473 kts | 239° |
| 2026-05-05 16:38 | 52.72594 | -51.11892 | 37471 ft | 473 kts | 239° |
| 2026-05-05 16:38 | 52.70082 | -51.21865 | 37480 ft | 475 kts | 239° |
| 2026-05-05 16:39 | 52.67529 | -51.31948 | 37461 ft | 476 kts | 239° |
| 2026-05-05 16:39 | 52.64994 | -51.41927 | 37445 ft | 477 kts | 240° |
| 2026-05-05 16:40 | 52.62436 | -51.51947 | 37461 ft | 476 kts | 239° |
| 2026-05-05 16:40 | 52.59869 | -51.61964 | 37467 ft | 476 kts | 240° |
| 2026-05-05 16:41 | 52.57296 | -51.71948 | 37439 ft | 477 kts | 239° |
| 2026-05-05 16:41 | 52.54696 | -51.81996 | 37442 ft | 479 kts | 239° |
| 2026-05-05 16:42 | 52.52104 | -51.91976 | 37430 ft | 478 kts | 239° |
| 2026-05-05 16:42 | 52.49485 | -52.02004 | 37449 ft | 480 kts | 239° |
| 2026-05-05 16:43 | 52.46856 | -52.12035 | 37438 ft | 479 kts | 239° |
| 2026-05-05 16:43 | 52.44230 | -52.22001 | 37418 ft | 481 kts | 239° |
| 2026-05-05 16:44 | 52.41565 | -52.32074 | 37476 ft | 482 kts | 239° |
| 2026-05-05 16:44 | 52.38905 | -52.42094 | 37422 ft | 482 kts | 239° |
| 2026-05-05 16:45 | 52.36242 | -52.52073 | 37414 ft | 483 kts | 239° |
| 2026-05-05 16:45 | 52.33551 | -52.62109 | 37410 ft | 484 kts | 240° |
| 2026-05-05 16:46 | 52.30857 | -52.72127 | 37396 ft | 482 kts | 239° |
| 2026-05-05 16:46 | 52.28146 | -52.82146 | 37389 ft | 484 kts | 239° |
| 2026-05-05 16:47 | 52.25422 | -52.92175 | 37389 ft | 484 kts | 239° |
| 2026-05-05 16:47 | 52.22702 | -53.02160 | 37368 ft | 484 kts | 239° |
| 2026-05-05 16:48 | 52.19981 | -53.12094 | 37370 ft | 485 kts | 239° |
| 2026-05-05 16:48 | 52.17231 | -53.22089 | 37353 ft | 484 kts | 239° |
| 2026-05-05 16:49 | 52.14486 | -53.32024 | 37365 ft | 484 kts | 239° |
| 2026-05-05 16:49 | 52.11713 | -53.42009 | 37347 ft | 484 kts | 239° |
| 2026-05-05 16:50 | 52.08944 | -53.51959 | 37347 ft | 485 kts | 239° |
| 2026-05-05 16:50 | 52.06179 | -53.61838 | 37345 ft | 484 kts | 239° |
| 2026-05-05 16:51 | 52.03379 | -53.71795 | 37333 ft | 485 kts | 239° |
| 2026-05-05 16:51 | 52.00573 | -53.81737 | 37306 ft | 486 kts | 239° |
| 2026-05-05 16:52 | 51.97752 | -53.91692 | 37322 ft | 488 kts | 239° |
| 2026-05-05 16:52 | 51.94927 | -54.01624 | 37323 ft | 487 kts | 239° |
| 2026-05-05 16:53 | 51.92109 | -54.11486 | 37336 ft | 487 kts | 239° |
| 2026-05-05 16:53 | 51.89246 | -54.21451 | 37333 ft | 487 kts | 239° |
| 2026-05-05 16:54 | 51.86397 | -54.31340 | 37324 ft | 487 kts | 239° |
| 2026-05-05 16:54 | 51.83533 | -54.41227 | 37309 ft | 488 kts | 239° |
| 2026-05-05 16:55 | 51.80639 | -54.51063 | 37297 ft | 487 kts | 238° |
| 2026-05-05 16:55 | 51.77313 | -54.60495 | 37292 ft | 483 kts | 234° |
| 2026-05-05 16:56 | 51.73828 | -54.69690 | 37295 ft | 483 kts | 233° |
| 2026-05-05 16:56 | 51.70336 | -54.78875 | 37285 ft | 483 kts | 233° |
| 2026-05-05 16:57 | 51.66821 | -54.88084 | 37277 ft | 484 kts | 233° |
| 2026-05-05 16:57 | 51.63302 | -54.97278 | 37281 ft | 484 kts | 233° |
| 2026-05-05 16:58 | 51.59787 | -55.06422 | 37278 ft | 484 kts | 233° |
| 2026-05-05 16:58 | 51.56243 | -55.15612 | 37274 ft | 485 kts | 233° |
| 2026-05-05 16:59 | 51.52714 | -55.24731 | 37263 ft | 484 kts | 233° |
| 2026-05-05 16:59 | 51.49154 | -55.33896 | 37256 ft | 484 kts | 233° |
| 2026-05-05 17:00 | 51.45587 | -55.43045 | 37256 ft | 485 kts | 234° |
| 2026-05-05 17:00 | 51.42027 | -55.52147 | 37249 ft | 486 kts | 234° |
| 2026-05-05 17:01 | 51.38438 | -55.61291 | 37244 ft | 486 kts | 234° |
| 2026-05-05 17:01 | 51.34842 | -55.70417 | 37242 ft | 487 kts | 233° |
| 2026-05-05 17:02 | 51.31252 | -55.79499 | 37245 ft | 487 kts | 233° |
| 2026-05-05 17:02 | 51.27647 | -55.88582 | 37235 ft | 487 kts | 233° |
| 2026-05-05 17:03 | 51.24014 | -55.97707 | 37229 ft | 488 kts | 233° |
| 2026-05-05 17:03 | 51.20377 | -56.06805 | 37224 ft | 490 kts | 233° |
| 2026-05-05 17:04 | 51.16720 | -56.15932 | 37210 ft | 491 kts | 233° |
| 2026-05-05 17:04 | 51.13065 | -56.25021 | 37207 ft | 490 kts | 233° |
| 2026-05-05 17:05 | 51.09402 | -56.34090 | 37206 ft | 489 kts | 233° |
| 2026-05-05 17:05 | 51.05722 | -56.43169 | 37193 ft | 489 kts | 234° |
| 2026-05-05 17:06 | 51.02052 | -56.52198 | 37184 ft | 490 kts | 233° |
| 2026-05-05 17:06 | 50.98373 | -56.61215 | 37175 ft | 490 kts | 234° |
| 2026-05-05 17:07 | 50.94661 | -56.70278 | 37170 ft | 489 kts | 233° |
| 2026-05-05 17:07 | 50.90966 | -56.79271 | 37157 ft | 488 kts | 233° |
| 2026-05-05 17:08 | 50.87268 | -56.88238 | 37160 ft | 487 kts | 233° |
| 2026-05-05 17:08 | 50.83579 | -56.97156 | 37153 ft | 486 kts | 233° |
| 2026-05-05 17:09 | 50.79878 | -57.06072 | 37150 ft | 487 kts | 233° |
| 2026-05-05 17:09 | 50.76164 | -57.14984 | 37141 ft | 487 kts | 233° |
| 2026-05-05 17:10 | 50.72475 | -57.23809 | 37149 ft | 486 kts | 233° |
| 2026-05-05 17:10 | 50.68753 | -57.32686 | 37164 ft | 486 kts | 233° |
| 2026-05-05 17:11 | 50.65034 | -57.41524 | 37166 ft | 485 kts | 233° |
| 2026-05-05 17:11 | 50.61327 | -57.50301 | 37163 ft | 485 kts | 233° |
| 2026-05-05 17:12 | 50.57601 | -57.59096 | 37164 ft | 485 kts | 233° |
| 2026-05-05 17:12 | 50.53859 | -57.67897 | 37154 ft | 484 kts | 233° |
| 2026-05-05 17:13 | 50.50142 | -57.76614 | 37159 ft | 484 kts | 233° |
| 2026-05-05 17:13 | 50.46397 | -57.85364 | 37154 ft | 484 kts | 233° |
| 2026-05-05 17:14 | 50.42645 | -57.94105 | 37165 ft | 484 kts | 233° |
| 2026-05-05 17:14 | 50.38903 | -58.02791 | 37169 ft | 484 kts | 233° |
| 2026-05-05 17:15 | 50.35140 | -58.11495 | 37186 ft | 484 kts | 233° |
| 2026-05-05 17:15 | 50.31382 | -58.20163 | 37179 ft | 484 kts | 233° |
| 2026-05-05 17:16 | 50.27606 | -58.28835 | 37181 ft | 484 kts | 233° |
| 2026-05-05 17:16 | 50.23852 | -58.37438 | 37172 ft | 483 kts | 233° |
| 2026-05-05 17:17 | 50.20052 | -58.46116 | 37195 ft | 484 kts | 233° |
| 2026-05-05 17:17 | 50.16279 | -58.54702 | 37173 ft | 484 kts | 233° |
| 2026-05-05 17:18 | 50.12477 | -58.63327 | 37170 ft | 484 kts | 233° |
| 2026-05-05 17:18 | 50.08664 | -58.71951 | 37170 ft | 483 kts | 233° |
| 2026-05-05 17:19 | 50.04874 | -58.80491 | 37189 ft | 482 kts | 233° |
| 2026-05-05 17:19 | 50.01087 | -58.88999 | 37187 ft | 482 kts | 233° |
| 2026-05-05 17:20 | 49.97270 | -58.97545 | 37193 ft | 482 kts | 233° |
| 2026-05-05 17:20 | 49.93461 | -59.06047 | 37201 ft | 482 kts | 233° |
| 2026-05-05 17:21 | 49.89644 | -59.14540 | 37201 ft | 482 kts | 233° |
| 2026-05-05 17:22 | 49.83902 | -59.27264 | 37204 ft | 481 kts | 233° |
| 2026-05-05 17:22 | 49.80081 | -59.35696 | 37212 ft | 479 kts | 233° |
| 2026-05-05 17:23 | 49.76280 | -59.44059 | 37206 ft | 479 kts | 233° |
| 2026-05-05 17:23 | 49.72456 | -59.52446 | 37220 ft | 478 kts | 233° |
| 2026-05-05 17:24 | 49.68625 | -59.60823 | 37209 ft | 479 kts | 233° |
| 2026-05-05 17:24 | 49.64801 | -59.69155 | 37229 ft | 478 kts | 233° |
| 2026-05-05 17:25 | 49.60976 | -59.77467 | 37219 ft | 477 kts | 233° |
| 2026-05-05 17:25 | 49.57121 | -59.85815 | 37213 ft | 477 kts | 233° |
| 2026-05-05 17:26 | 49.53293 | -59.94079 | 37222 ft | 476 kts | 233° |
| 2026-05-05 17:26 | 49.49444 | -60.02365 | 37219 ft | 476 kts | 233° |
| 2026-05-05 17:27 | 49.45614 | -60.10586 | 37226 ft | 475 kts | 233° |
| 2026-05-05 17:27 | 49.41778 | -60.18792 | 37238 ft | 474 kts | 233° |
| 2026-05-05 17:28 | 49.37939 | -60.26976 | 37244 ft | 474 kts | 233° |
| 2026-05-05 17:28 | 49.34123 | -60.35090 | 37245 ft | 474 kts | 233° |
| 2026-05-05 17:29 | 49.30271 | -60.43251 | 37257 ft | 473 kts | 233° |
| 2026-05-05 17:29 | 49.26414 | -60.51402 | 37253 ft | 473 kts | 233° |
| 2026-05-05 17:30 | 49.22587 | -60.59465 | 37253 ft | 473 kts | 233° |
| 2026-05-05 17:30 | 49.18720 | -60.67586 | 37256 ft | 473 kts | 233° |
| 2026-05-05 17:31 | 49.14852 | -60.75691 | 37271 ft | 472 kts | 232° |
| 2026-05-05 17:31 | 49.10995 | -60.83743 | 37286 ft | 471 kts | 233° |
| 2026-05-05 17:32 | 49.07164 | -60.91714 | 37288 ft | 471 kts | 233° |
| 2026-05-05 17:32 | 49.03301 | -60.99728 | 37299 ft | 470 kts | 233° |
| 2026-05-05 17:33 | 48.99433 | -61.07731 | 37307 ft | 470 kts | 233° |
| 2026-05-05 17:33 | 48.95571 | -61.15701 | 37313 ft | 469 kts | 233° |
| 2026-05-05 17:34 | 48.91710 | -61.23643 | 37315 ft | 469 kts | 233° |
| 2026-05-05 17:34 | 48.87839 | -61.31582 | 37317 ft | 469 kts | 233° |
| 2026-05-05 17:35 | 48.83966 | -61.39501 | 37337 ft | 468 kts | 233° |
| 2026-05-05 17:35 | 48.80104 | -61.47375 | 37338 ft | 467 kts | 233° |
| 2026-05-05 17:36 | 48.76242 | -61.55222 | 37353 ft | 467 kts | 233° |
| 2026-05-05 17:36 | 48.72367 | -61.63077 | 37361 ft | 466 kts | 233° |
| 2026-05-05 17:37 | 48.68483 | -61.70928 | 37357 ft | 466 kts | 232° |
| 2026-05-05 17:37 | 48.64619 | -61.78713 | 37364 ft | 466 kts | 232° |
| 2026-05-05 17:38 | 48.60726 | -61.86532 | 37383 ft | 466 kts | 233° |
| 2026-05-05 17:38 | 48.56854 | -61.94292 | 37384 ft | 465 kts | 233° |
| 2026-05-05 17:39 | 48.52976 | -62.02039 | 37400 ft | 465 kts | 233° |
| 2026-05-05 17:39 | 48.49079 | -62.09803 | 37411 ft | 465 kts | 233° |
| 2026-05-05 17:40 | 48.45181 | -62.17545 | 37416 ft | 466 kts | 233° |
| 2026-05-05 17:40 | 48.41273 | -62.25283 | 37417 ft | 467 kts | 233° |
| 2026-05-05 17:41 | 48.37363 | -62.33006 | 37426 ft | 466 kts | 233° |
| 2026-05-05 17:41 | 48.33429 | -62.40754 | 37435 ft | 466 kts | 233° |
| 2026-05-05 17:42 | 48.29507 | -62.48454 | 37437 ft | 465 kts | 233° |
| 2026-05-05 17:42 | 48.25580 | -62.56142 | 37435 ft | 466 kts | 233° |
| 2026-05-05 17:43 | 48.21672 | -62.63771 | 37439 ft | 465 kts | 233° |
| 2026-05-05 17:43 | 48.17730 | -62.71446 | 37458 ft | 465 kts | 232° |
| 2026-05-05 17:44 | 48.13772 | -62.79132 | 37459 ft | 465 kts | 232° |
| 2026-05-05 17:44 | 48.09835 | -62.86756 | 37475 ft | 465 kts | 232° |
| 2026-05-05 17:45 | 48.05884 | -62.94381 | 37487 ft | 464 kts | 233° |
| 2026-05-05 17:45 | 48.01937 | -63.01980 | 37493 ft | 464 kts | 233° |
| 2026-05-05 17:46 | 47.97990 | -63.09559 | 37477 ft | 464 kts | 233° |
| 2026-05-05 17:46 | 47.94037 | -63.17128 | 37481 ft | 464 kts | 233° |
| 2026-05-05 17:47 | 47.90093 | -63.24656 | 37479 ft | 464 kts | 233° |
| 2026-05-05 17:47 | 47.86103 | -63.32251 | 37493 ft | 464 kts | 233° |
| 2026-05-05 17:48 | 47.82115 | -63.39825 | 37496 ft | 465 kts | 232° |
| 2026-05-05 17:48 | 47.78157 | -63.47321 | 37504 ft | 465 kts | 232° |
| 2026-05-05 17:49 | 47.74161 | -63.54864 | 37499 ft | 465 kts | 232° |
| 2026-05-05 17:49 | 47.70176 | -63.62366 | 37513 ft | 465 kts | 232° |
| 2026-05-05 17:50 | 47.66170 | -63.69883 | 37518 ft | 465 kts | 232° |
| 2026-05-05 17:50 | 47.62177 | -63.77358 | 37529 ft | 465 kts | 232° |
| 2026-05-05 17:51 | 47.58158 | -63.84865 | 37526 ft | 465 kts | 232° |
| 2026-05-05 17:51 | 47.54157 | -63.92318 | 37531 ft | 465 kts | 232° |
| 2026-05-05 17:52 | 47.50153 | -63.99754 | 37539 ft | 464 kts | 232° |
| 2026-05-05 17:52 | 47.46140 | -64.07188 | 37549 ft | 464 kts | 232° |
| 2026-05-05 17:53 | 47.42117 | -64.14616 | 37550 ft | 464 kts | 232° |
| 2026-05-05 17:53 | 47.38114 | -64.21989 | 37556 ft | 463 kts | 232° |
| 2026-05-05 17:54 | 47.34090 | -64.29380 | 37563 ft | 463 kts | 232° |
| 2026-05-05 17:54 | 47.30067 | -64.36749 | 37563 ft | 464 kts | 232° |
| 2026-05-05 17:55 | 47.26012 | -64.44157 | 37578 ft | 463 kts | 232° |
| 2026-05-05 17:55 | 47.21979 | -64.51508 | 37589 ft | 463 kts | 232° |
| 2026-05-05 17:56 | 47.17969 | -64.58797 | 37595 ft | 462 kts | 232° |
| 2026-05-05 17:56 | 47.13934 | -64.66111 | 37601 ft | 461 kts | 231° |
| 2026-05-05 17:57 | 47.09897 | -64.73406 | 37603 ft | 460 kts | 231° |
| 2026-05-05 17:57 | 47.05889 | -64.80632 | 37601 ft | 460 kts | 231° |
| 2026-05-05 17:58 | 47.01855 | -64.87888 | 37604 ft | 459 kts | 232° |
| 2026-05-05 17:58 | 46.97831 | -64.95104 | 37607 ft | 459 kts | 231° |
| 2026-05-05 17:59 | 46.93809 | -65.02299 | 37612 ft | 459 kts | 231° |
| 2026-05-05 17:59 | 46.89768 | -65.09508 | 37606 ft | 459 kts | 232° |
| 2026-05-05 18:00 | 46.85735 | -65.16683 | 37617 ft | 458 kts | 232° |
| 2026-05-05 18:00 | 46.81708 | -65.23828 | 37623 ft | 457 kts | 232° |
| 2026-05-05 18:01 | 46.77678 | -65.30964 | 37626 ft | 457 kts | 232° |
| 2026-05-05 18:01 | 46.73653 | -65.38068 | 37626 ft | 457 kts | 232° |
| 2026-05-05 18:02 | 46.69624 | -65.45161 | 37624 ft | 456 kts | 232° |
| 2026-05-05 18:02 | 46.65579 | -65.52267 | 37628 ft | 455 kts | 232° |
| 2026-05-05 18:03 | 46.61555 | -65.59319 | 37628 ft | 455 kts | 232° |
| 2026-05-05 18:03 | 46.57539 | -65.66337 | 37633 ft | 454 kts | 231° |
| 2026-05-05 18:04 | 46.53495 | -65.73380 | 37636 ft | 455 kts | 231° |
| 2026-05-05 18:04 | 46.49463 | -65.80390 | 37641 ft | 455 kts | 231° |
| 2026-05-05 18:05 | 46.45409 | -65.87422 | 37644 ft | 455 kts | 231° |
| 2026-05-05 18:05 | 46.41351 | -65.94443 | 37642 ft | 456 kts | 231° |
| 2026-05-05 18:06 | 46.37295 | -66.01439 | 37648 ft | 456 kts | 231° |
| 2026-05-05 18:06 | 46.33198 | -66.08490 | 37649 ft | 456 kts | 231° |
| 2026-05-05 18:07 | 46.29127 | -66.15475 | 37648 ft | 456 kts | 232° |
| 2026-05-05 18:07 | 46.25072 | -66.22420 | 37659 ft | 455 kts | 232° |
| 2026-05-05 18:08 | 46.20987 | -66.29394 | 37661 ft | 454 kts | 232° |
| 2026-05-05 18:08 | 46.16921 | -66.36323 | 37665 ft | 453 kts | 232° |
| 2026-05-05 18:09 | 46.12862 | -66.43220 | 37670 ft | 453 kts | 232° |
| 2026-05-05 18:09 | 46.08806 | -66.50098 | 37670 ft | 453 kts | 232° |
| 2026-05-05 18:10 | 46.04726 | -66.56995 | 37683 ft | 453 kts | 232° |
| 2026-05-05 18:10 | 46.00661 | -66.63853 | 37688 ft | 453 kts | 232° |
| 2026-05-05 18:11 | 45.96565 | -66.70739 | 37703 ft | 453 kts | 231° |
| 2026-05-05 18:11 | 45.92494 | -66.77573 | 37702 ft | 452 kts | 231° |
| 2026-05-05 18:12 | 45.88421 | -66.84393 | 37713 ft | 451 kts | 231° |
| 2026-05-05 18:12 | 45.84356 | -66.91180 | 37709 ft | 450 kts | 231° |
| 2026-05-05 18:13 | 45.80269 | -66.97989 | 37717 ft | 448 kts | 231° |
| 2026-05-05 18:13 | 45.76240 | -67.04684 | 37715 ft | 448 kts | 231° |
| 2026-05-05 18:14 | 45.72185 | -67.11407 | 37719 ft | 447 kts | 231° |
| 2026-05-05 18:14 | 45.68131 | -67.18111 | 37717 ft | 447 kts | 231° |
| 2026-05-05 18:15 | 45.64070 | -67.24815 | 37721 ft | 447 kts | 231° |
| 2026-05-05 18:15 | 45.60011 | -67.31493 | 37721 ft | 446 kts | 231° |
| 2026-05-05 18:16 | 45.55936 | -67.38184 | 37726 ft | 446 kts | 231° |
| 2026-05-05 18:16 | 45.51887 | -67.44815 | 37725 ft | 445 kts | 231° |
| 2026-05-05 18:17 | 45.47818 | -67.51464 | 37737 ft | 446 kts | 231° |
| 2026-05-05 18:17 | 45.43777 | -67.58048 | 37723 ft | 445 kts | 231° |
| 2026-05-05 18:18 | 45.39691 | -67.64695 | 37725 ft | 445 kts | 231° |
| 2026-05-05 18:18 | 45.35617 | -67.71302 | 37722 ft | 444 kts | 231° |
| 2026-05-05 18:19 | 45.31751 | -67.78069 | 37720 ft | 443 kts | 234° |
| 2026-05-05 18:19 | 45.27995 | -67.84929 | 37715 ft | 444 kts | 234° |
| 2026-05-05 18:20 | 45.24211 | -67.91817 | 37716 ft | 443 kts | 234° |
| 2026-05-05 18:20 | 45.20408 | -67.98730 | 37721 ft | 443 kts | 234° |
| 2026-05-05 18:21 | 45.16640 | -68.05559 | 37722 ft | 443 kts | 234° |
| 2026-05-05 18:21 | 45.12851 | -68.12418 | 37732 ft | 442 kts | 234° |
| 2026-05-05 18:22 | 45.09074 | -68.19237 | 37733 ft | 441 kts | 234° |
| 2026-05-05 18:22 | 45.05295 | -68.26042 | 37727 ft | 441 kts | 234° |
| 2026-05-05 18:23 | 45.01509 | -68.32838 | 37734 ft | 441 kts | 234° |
| 2026-05-05 18:23 | 44.97717 | -68.39637 | 37733 ft | 442 kts | 234° |
| 2026-05-05 18:24 | 44.93943 | -68.46385 | 37732 ft | 442 kts | 234° |
| 2026-05-05 18:24 | 44.90122 | -68.53204 | 37752 ft | 444 kts | 234° |
| 2026-05-05 18:25 | 44.86308 | -68.59991 | 37747 ft | 443 kts | 234° |
| 2026-05-05 18:25 | 44.82488 | -68.66770 | 37751 ft | 443 kts | 233° |
| 2026-05-05 18:26 | 44.78656 | -68.73554 | 37759 ft | 442 kts | 233° |
| 2026-05-05 18:26 | 44.74852 | -68.80277 | 37756 ft | 442 kts | 234° |
| 2026-05-05 18:27 | 44.71024 | -68.87026 | 37756 ft | 443 kts | 234° |
| 2026-05-05 18:27 | 44.67197 | -68.93755 | 37759 ft | 442 kts | 233° |
| 2026-05-05 18:28 | 44.61419 | -69.03882 | 37743 ft | 443 kts | 234° |
| 2026-05-05 18:28 | 44.57581 | -69.10593 | 37767 ft | 443 kts | 233° |
| 2026-05-05 18:29 | 44.53744 | -69.17287 | 37757 ft | 443 kts | 234° |
| 2026-05-05 18:29 | 44.49886 | -69.24001 | 37766 ft | 444 kts | 234° |
| 2026-05-05 18:30 | 44.46033 | -69.30686 | 37765 ft | 443 kts | 234° |
| 2026-05-05 18:30 | 44.42174 | -69.37369 | 37764 ft | 443 kts | 234° |
| 2026-05-05 18:31 | 44.38311 | -69.44043 | 37778 ft | 443 kts | 234° |
| 2026-05-05 18:31 | 44.34448 | -69.50705 | 37768 ft | 443 kts | 234° |
| 2026-05-05 18:32 | 44.30561 | -69.57389 | 37757 ft | 443 kts | 234° |
| 2026-05-05 18:32 | 44.26692 | -69.64029 | 37757 ft | 443 kts | 234° |
| 2026-05-05 18:33 | 44.22820 | -69.70656 | 37777 ft | 444 kts | 233° |
| 2026-05-05 18:33 | 44.18911 | -69.77335 | 37784 ft | 443 kts | 233° |
| 2026-05-05 18:34 | 44.15026 | -69.83952 | 37761 ft | 443 kts | 233° |
| 2026-05-05 18:34 | 44.11144 | -69.90554 | 37776 ft | 443 kts | 233° |
| 2026-05-05 18:35 | 44.07243 | -69.97168 | 37778 ft | 444 kts | 233° |
| 2026-05-05 18:35 | 44.03323 | -70.03806 | 37769 ft | 444 kts | 233° |
| 2026-05-05 18:36 | 43.99401 | -70.10422 | 37776 ft | 444 kts | 233° |
| 2026-05-05 18:36 | 43.95496 | -70.17003 | 37777 ft | 444 kts | 234° |
| 2026-05-05 18:37 | 43.91580 | -70.23583 | 37777 ft | 444 kts | 233° |
| 2026-05-05 18:37 | 43.87647 | -70.30177 | 37782 ft | 444 kts | 234° |
| 2026-05-05 18:38 | 43.83725 | -70.36740 | 37782 ft | 443 kts | 234° |
| 2026-05-05 18:38 | 43.79801 | -70.43291 | 37786 ft | 444 kts | 234° |
| 2026-05-05 18:39 | 43.75860 | -70.49853 | 37783 ft | 444 kts | 234° |
| 2026-05-05 18:39 | 43.71930 | -70.56384 | 37793 ft | 445 kts | 234° |
| 2026-05-05 18:40 | 43.67970 | -70.62945 | 37791 ft | 444 kts | 234° |
| 2026-05-05 18:40 | 43.64045 | -70.69436 | 37791 ft | 444 kts | 233° |
| 2026-05-05 18:41 | 43.60071 | -70.75954 | 37794 ft | 445 kts | 232° |
| 2026-05-05 18:41 | 43.55744 | -70.82076 | 37793 ft | 446 kts | 226° |
| 2026-05-05 18:42 | 43.51004 | -70.87539 | 37792 ft | 449 kts | 221° |
| 2026-05-05 18:42 | 43.45825 | -70.92352 | 37785 ft | 453 kts | 216° |
| 2026-05-05 18:43 | 43.40335 | -70.96665 | 37790 ft | 453 kts | 214° |
| 2026-05-05 18:43 | 43.34874 | -71.00934 | 37798 ft | 453 kts | 214° |
| 2026-05-05 18:44 | 43.29420 | -71.05187 | 37795 ft | 454 kts | 214° |
| 2026-05-05 18:44 | 43.23922 | -71.09457 | 37799 ft | 454 kts | 214° |
| 2026-05-05 18:45 | 43.18431 | -71.13715 | 37802 ft | 454 kts | 214° |
| 2026-05-05 18:45 | 43.12951 | -71.17963 | 37791 ft | 454 kts | 215° |
| 2026-05-05 18:46 | 43.07693 | -71.22620 | 37801 ft | 450 kts | 221° |
| 2026-05-05 18:46 | 43.02854 | -71.27905 | 37805 ft | 445 kts | 226° |
| 2026-05-05 18:47 | 42.98519 | -71.33543 | 37813 ft | 444 kts | 229° |
| 2026-05-05 18:47 | 42.94118 | -71.39382 | 37811 ft | 445 kts | 229° |
| 2026-05-05 18:48 | 42.89658 | -71.45280 | 37809 ft | 446 kts | 229° |
| 2026-05-05 18:48 | 42.85223 | -71.51138 | 37813 ft | 446 kts | 229° |
| 2026-05-05 18:49 | 42.80787 | -71.56991 | 37811 ft | 446 kts | 229° |
| 2026-05-05 18:49 | 42.76330 | -71.62852 | 37819 ft | 446 kts | 229° |
| 2026-05-05 18:50 | 42.71875 | -71.68700 | 37820 ft | 446 kts | 228° |
| 2026-05-05 18:50 | 42.67421 | -71.74538 | 37829 ft | 446 kts | 228° |
| 2026-05-05 18:51 | 42.62975 | -71.80350 | 37838 ft | 446 kts | 228° |
| 2026-05-05 18:51 | 42.58516 | -71.86170 | 37840 ft | 446 kts | 228° |
| 2026-05-05 18:52 | 42.54031 | -71.92009 | 37848 ft | 447 kts | 228° |
| 2026-05-05 18:52 | 42.49547 | -71.97834 | 37862 ft | 447 kts | 228° |
| 2026-05-05 18:53 | 42.45070 | -72.03638 | 37861 ft | 447 kts | 228° |
| 2026-05-05 18:53 | 42.40605 | -72.09418 | 37845 ft | 447 kts | 228° |
| 2026-05-05 18:54 | 42.36123 | -72.15203 | 37846 ft | 447 kts | 228° |
| 2026-05-05 18:54 | 42.31612 | -72.21017 | 37836 ft | 447 kts | 228° |
| 2026-05-05 18:55 | 42.27123 | -72.26789 | 37832 ft | 447 kts | 228° |
| 2026-05-05 18:55 | 42.22625 | -72.32559 | 37837 ft | 448 kts | 228° |
| 2026-05-05 18:56 | 42.18115 | -72.38336 | 37840 ft | 448 kts | 228° |
| 2026-05-05 18:56 | 42.13615 | -72.44087 | 37843 ft | 448 kts | 228° |
| 2026-05-05 18:57 | 42.09102 | -72.49841 | 37844 ft | 449 kts | 228° |
| 2026-05-05 18:57 | 42.04583 | -72.55592 | 37843 ft | 449 kts | 229° |
| 2026-05-05 18:58 | 42.00048 | -72.61349 | 37855 ft | 448 kts | 228° |
| 2026-05-05 18:58 | 41.95525 | -72.67078 | 37855 ft | 448 kts | 228° |
| 2026-05-05 18:59 | 41.91141 | -72.72956 | 37861 ft | 447 kts | 230° |
| 2026-05-05 18:59 | 41.86794 | -72.78904 | 37863 ft | 448 kts | 230° |
| 2026-05-05 19:00 | 41.82435 | -72.84853 | 37866 ft | 447 kts | 230° |
| 2026-05-05 19:00 | 41.78078 | -72.90787 | 37886 ft | 448 kts | 230° |
| 2026-05-05 19:01 | 41.73701 | -72.96740 | 37894 ft | 449 kts | 230° |
| 2026-05-05 19:01 | 41.69328 | -73.02678 | 37884 ft | 448 kts | 230° |
| 2026-05-05 19:02 | 41.64961 | -73.08591 | 37891 ft | 449 kts | 230° |
| 2026-05-05 19:02 | 41.60577 | -73.14517 | 37897 ft | 449 kts | 230° |
| 2026-05-05 19:03 | 41.56195 | -73.20425 | 37894 ft | 450 kts | 230° |
| 2026-05-05 19:03 | 41.51790 | -73.26354 | 37900 ft | 450 kts | 230° |
| 2026-05-05 19:04 | 41.47407 | -73.32246 | 37905 ft | 449 kts | 230° |
| 2026-05-05 19:04 | 41.43004 | -73.38251 | 37894 ft | 450 kts | 230° |
| 2026-05-05 19:05 | 41.38618 | -73.44236 | 37891 ft | 450 kts | 230° |
| 2026-05-05 19:05 | 41.34237 | -73.50195 | 37899 ft | 451 kts | 230° |
| 2026-05-05 19:06 | 41.29842 | -73.56170 | 37905 ft | 451 kts | 231° |
| 2026-05-05 19:06 | 41.25768 | -73.62461 | 37890 ft | 449 kts | 236° |
| 2026-05-05 19:07 | 41.21822 | -73.68955 | 37895 ft | 451 kts | 235° |
| 2026-05-05 19:07 | 41.17908 | -73.75378 | 37894 ft | 450 kts | 235° |
| 2026-05-05 19:08 | 41.13992 | -73.81824 | 37891 ft | 450 kts | 236° |
| 2026-05-05 19:08 | 41.10110 | -73.88361 | 37924 ft | 450 kts | 236° |
| 2026-05-05 19:09 | 41.06245 | -73.94864 | 37917 ft | 450 kts | 236° |
| 2026-05-05 19:09 | 41.02308 | -74.01466 | 37904 ft | 450 kts | 236° |
| 2026-05-05 19:10 | 40.98434 | -74.07943 | 37892 ft | 451 kts | 236° |
| 2026-05-05 19:10 | 40.94539 | -74.14439 | 37897 ft | 451 kts | 236° |
| 2026-05-05 19:11 | 40.90625 | -74.20950 | 37895 ft | 452 kts | 236° |
| 2026-05-05 19:11 | 40.86737 | -74.27402 | 37906 ft | 452 kts | 236° |
| 2026-05-05 19:12 | 40.82819 | -74.33894 | 37906 ft | 452 kts | 236° |
| 2026-05-05 19:12 | 40.78897 | -74.40378 | 37907 ft | 451 kts | 236° |
| 2026-05-05 19:13 | 40.74988 | -74.46831 | 37902 ft | 452 kts | 236° |
| 2026-05-05 19:13 | 40.71080 | -74.53273 | 37903 ft | 452 kts | 236° |
| 2026-05-05 19:14 | 40.67150 | -74.59727 | 37905 ft | 452 kts | 236° |
| 2026-05-05 19:14 | 40.63227 | -74.66158 | 37922 ft | 452 kts | 235° |
| 2026-05-05 19:15 | 40.59308 | -74.72562 | 37905 ft | 453 kts | 234° |
| 2026-05-05 19:15 | 40.55093 | -74.78758 | 37912 ft | 455 kts | 231° |
| 2026-05-05 19:16 | 40.50794 | -74.84843 | 37909 ft | 456 kts | 231° |
| 2026-05-05 19:16 | 40.46480 | -74.90935 | 37908 ft | 456 kts | 231° |
| 2026-05-05 19:17 | 40.42169 | -74.97008 | 37914 ft | 456 kts | 231° |
| 2026-05-05 19:17 | 40.37860 | -75.03073 | 37923 ft | 455 kts | 231° |
| 2026-05-05 19:18 | 40.33554 | -75.09119 | 37899 ft | 455 kts | 231° |
| 2026-05-05 19:18 | 40.29226 | -75.15185 | 37922 ft | 456 kts | 231° |
| 2026-05-05 19:19 | 40.24891 | -75.21247 | 37913 ft | 457 kts | 231° |
| 2026-05-05 19:19 | 40.20555 | -75.27295 | 37918 ft | 458 kts | 231° |
| 2026-05-05 19:20 | 40.16214 | -75.33339 | 37919 ft | 458 kts | 231° |
| 2026-05-05 19:20 | 40.11863 | -75.39386 | 37916 ft | 458 kts | 231° |
| 2026-05-05 19:21 | 40.07502 | -75.45438 | 37918 ft | 457 kts | 231° |
| 2026-05-05 19:21 | 40.03162 | -75.51448 | 37923 ft | 458 kts | 231° |
| 2026-05-05 19:22 | 39.98798 | -75.57474 | 37938 ft | 458 kts | 231° |
| 2026-05-05 19:22 | 39.94420 | -75.63510 | 37936 ft | 458 kts | 231° |
| 2026-05-05 19:23 | 39.90204 | -75.69681 | 37934 ft | 455 kts | 234° |
| 2026-05-05 19:23 | 39.86255 | -75.76003 | 37932 ft | 456 kts | 234° |
| 2026-05-05 19:24 | 39.82272 | -75.82365 | 37940 ft | 455 kts | 234° |
| 2026-05-05 19:24 | 39.78286 | -75.88723 | 37941 ft | 455 kts | 234° |
| 2026-05-05 19:25 | 39.74282 | -75.95094 | 37943 ft | 456 kts | 234° |
| 2026-05-05 19:25 | 39.70290 | -76.01431 | 37944 ft | 456 kts | 234° |
| 2026-05-05 19:26 | 39.66274 | -76.07794 | 37925 ft | 455 kts | 234° |
| 2026-05-05 19:26 | 39.62297 | -76.14079 | 37711 ft | 454 kts | 234° |
| 2026-05-05 19:27 | 39.60288 | -76.17252 | 37834 ft | 455 kts | 234° |
| 2026-05-05 19:27 | 39.58251 | -76.20425 | 37890 ft | 456 kts | 234° |
| 2026-05-05 19:27 | 39.54200 | -76.26646 | 37930 ft | 454 kts | 234° |
| 2026-05-05 19:28 | 39.50128 | -76.32886 | 37918 ft | 455 kts | 234° |
| 2026-05-05 19:28 | 39.46003 | -76.39066 | 37941 ft | 455 kts | 231° |
| 2026-05-05 19:29 | 39.41563 | -76.44933 | 37930 ft | 455 kts | 230° |
| 2026-05-05 19:29 | 39.37123 | -76.50745 | 37927 ft | 455 kts | 230° |
| 2026-05-05 19:30 | 39.32678 | -76.56550 | 37926 ft | 456 kts | 230° |
| 2026-05-05 19:30 | 39.28228 | -76.62350 | 37935 ft | 454 kts | 230° |
| 2026-05-05 19:31 | 39.23794 | -76.68115 | 37927 ft | 454 kts | 229° |
| 2026-05-05 19:31 | 39.19351 | -76.73885 | 37923 ft | 453 kts | 229° |
| 2026-05-05 19:32 | 39.14917 | -76.79632 | 37924 ft | 453 kts | 229° |
| 2026-05-05 19:32 | 39.10488 | -76.85361 | 37928 ft | 453 kts | 229° |
| 2026-05-05 19:33 | 39.06042 | -76.91097 | 37920 ft | 452 kts | 229° |
| 2026-05-05 19:33 | 39.01589 | -76.96830 | 37920 ft | 452 kts | 229° |
| 2026-05-05 19:34 | 38.97170 | -77.02518 | 37924 ft | 451 kts | 229° |
| 2026-05-05 19:35 | 38.90522 | -77.11073 | 37912 ft | 451 kts | 229° |
| 2026-05-05 19:35 | 38.86073 | -77.16779 | 37917 ft | 451 kts | 229° |
| 2026-05-05 19:36 | 38.81637 | -77.22459 | 37918 ft | 451 kts | 229° |
| 2026-05-05 19:36 | 38.77210 | -77.28112 | 37914 ft | 450 kts | 229° |
| 2026-05-05 19:37 | 38.72759 | -77.33733 | 37913 ft | 452 kts | 227° |
| 2026-05-05 19:37 | 38.68089 | -77.39152 | 37919 ft | 453 kts | 226° |
| 2026-05-05 19:38 | 38.63440 | -77.44529 | 37920 ft | 453 kts | 226° |
| 2026-05-05 19:38 | 38.58757 | -77.49929 | 37924 ft | 453 kts | 226° |
| 2026-05-05 19:39 | 38.54113 | -77.55278 | 37924 ft | 453 kts | 226° |
| 2026-05-05 19:39 | 38.49435 | -77.60653 | 37920 ft | 452 kts | 226° |
| 2026-05-05 19:40 | 38.44741 | -77.66035 | 37919 ft | 452 kts | 226° |
| 2026-05-05 19:40 | 38.40074 | -77.71378 | 37918 ft | 452 kts | 226° |
| 2026-05-05 19:41 | 38.35410 | -77.76711 | 37907 ft | 453 kts | 226° |
| 2026-05-05 19:41 | 38.30722 | -77.82057 | 37907 ft | 452 kts | 226° |
| 2026-05-05 19:42 | 38.26063 | -77.87362 | 37913 ft | 451 kts | 226° |
| 2026-05-05 19:42 | 38.21394 | -77.92669 | 37923 ft | 451 kts | 226° |
| 2026-05-05 19:43 | 38.16712 | -77.97980 | 37927 ft | 450 kts | 226° |
| 2026-05-05 19:43 | 38.12045 | -78.03265 | 37934 ft | 450 kts | 226° |
| 2026-05-05 19:44 | 38.07375 | -78.08543 | 37938 ft | 450 kts | 226° |
| 2026-05-05 19:44 | 38.02743 | -78.13823 | 37938 ft | 449 kts | 228° |
| 2026-05-05 19:45 | 37.98448 | -78.19492 | 37934 ft | 446 kts | 233° |
| 2026-05-05 19:45 | 37.94337 | -78.25352 | 37944 ft | 445 kts | 233° |
| 2026-05-05 19:46 | 37.90246 | -78.31170 | 37944 ft | 444 kts | 233° |
| 2026-05-05 19:46 | 37.86138 | -78.37002 | 37942 ft | 445 kts | 233° |
| 2026-05-05 19:47 | 37.82027 | -78.42827 | 37931 ft | 443 kts | 233° |
| 2026-05-05 19:47 | 37.77958 | -78.48586 | 37939 ft | 442 kts | 233° |
| 2026-05-05 19:48 | 37.73873 | -78.54354 | 37951 ft | 441 kts | 233° |
| 2026-05-05 19:48 | 37.69778 | -78.60126 | 37949 ft | 441 kts | 233° |
| 2026-05-05 19:49 | 37.65687 | -78.65884 | 37947 ft | 440 kts | 232° |
| 2026-05-05 19:49 | 37.61597 | -78.71629 | 37957 ft | 440 kts | 232° |
| 2026-05-05 19:50 | 37.57526 | -78.77336 | 37958 ft | 440 kts | 232° |
| 2026-05-05 19:50 | 37.53439 | -78.83060 | 37960 ft | 440 kts | 232° |
| 2026-05-05 19:51 | 37.49359 | -78.88759 | 37958 ft | 439 kts | 232° |
| 2026-05-05 19:51 | 37.45287 | -78.94439 | 37962 ft | 439 kts | 232° |
| 2026-05-05 19:52 | 37.41196 | -79.00133 | 37966 ft | 438 kts | 232° |
| 2026-05-05 19:52 | 37.37128 | -79.05787 | 37963 ft | 437 kts | 233° |
| 2026-05-05 19:53 | 37.33063 | -79.11426 | 37961 ft | 438 kts | 233° |
| 2026-05-05 19:53 | 37.28984 | -79.17071 | 37963 ft | 437 kts | 232° |
| 2026-05-05 19:54 | 37.24654 | -79.22479 | 37958 ft | 441 kts | 227° |
| 2026-05-05 19:54 | 37.19913 | -79.27306 | 37964 ft | 444 kts | 221° |
| 2026-05-05 19:55 | 37.14896 | -79.31833 | 37834 ft | 446 kts | 221° |
| 2026-05-05 19:55 | 37.12367 | -79.34114 | 37179 ft | 448 kts | 221° |
| 2026-05-05 19:55 | 37.09836 | -79.36394 | 36616 ft | 446 kts | 222° |
| 2026-05-05 19:55 | 37.07352 | -79.38625 | 36165 ft | 445 kts | 222° |
| 2026-05-05 19:56 | 37.04825 | -79.40896 | 35706 ft | 444 kts | 222° |
| 2026-05-05 19:56 | 37.02349 | -79.43120 | 35179 ft | 444 kts | 222° |
| 2026-05-05 19:56 | 36.99803 | -79.45349 | 34632 ft | 445 kts | 221° |
| 2026-05-05 19:56 | 36.97265 | -79.47498 | 34009 ft | 444 kts | 220° |
| 2026-05-05 19:57 | 36.94705 | -79.49648 | 33389 ft | 443 kts | 220° |
| 2026-05-05 19:57 | 36.92164 | -79.51782 | 32689 ft | 443 kts | 220° |
| 2026-05-05 19:57 | 36.89611 | -79.53928 | 32012 ft | 443 kts | 220° |
| 2026-05-05 19:57 | 36.87044 | -79.56087 | 31346 ft | 442 kts | 220° |
| 2026-05-05 19:58 | 36.84488 | -79.58239 | 30668 ft | 442 kts | 220° |
| 2026-05-05 19:58 | 36.81966 | -79.60358 | 29978 ft | 442 kts | 220° |
| 2026-05-05 19:58 | 36.79404 | -79.62512 | 29247 ft | 443 kts | 219° |
| 2026-05-05 19:58 | 36.76884 | -79.64627 | 28799 ft | 439 kts | 219° |
| 2026-05-05 19:59 | 36.74331 | -79.66766 | 28403 ft | 438 kts | 219° |
| 2026-05-05 19:59 | 36.71838 | -79.68854 | 27990 ft | 435 kts | 219° |
| 2026-05-05 19:59 | 36.69329 | -79.70950 | 27562 ft | 431 kts | 219° |
| 2026-05-05 19:59 | 36.66862 | -79.73010 | 27432 ft | 419 kts | 218° |
| 2026-05-05 20:00 | 36.64487 | -79.74986 | 27372 ft | 405 kts | 219° |
| 2026-05-05 20:00 | 36.62200 | -79.76892 | 27319 ft | 392 kts | 219° |
| 2026-05-05 20:00 | 36.59959 | -79.78758 | 27238 ft | 380 kts | 219° |
| 2026-05-05 20:00 | 36.57788 | -79.80569 | 27124 ft | 369 kts | 219° |
| 2026-05-05 20:01 | 36.55706 | -79.82304 | 27058 ft | 358 kts | 219° |
| 2026-05-05 20:01 | 36.53663 | -79.84003 | 26996 ft | 346 kts | 219° |
| 2026-05-05 20:01 | 36.51688 | -79.85645 | 26965 ft | 334 kts | 220° |
| 2026-05-05 20:01 | 36.49788 | -79.87223 | 26964 ft | 322 kts | 220° |
| 2026-05-05 20:02 | 36.47959 | -79.88744 | 26690 ft | 319 kts | 220° |
| 2026-05-05 20:02 | 36.46077 | -79.90320 | 26290 ft | 339 kts | 220° |
| 2026-05-05 20:02 | 36.44076 | -79.91996 | 25864 ft | 348 kts | 219° |
| 2026-05-05 20:02 | 36.42063 | -79.93665 | 25492 ft | 348 kts | 219° |
| 2026-05-05 20:03 | 36.40012 | -79.95366 | 25124 ft | 369 kts | 219° |
| 2026-05-05 20:03 | 36.37853 | -79.97161 | 24693 ft | 382 kts | 218° |
| 2026-05-05 20:03 | 36.35634 | -79.98991 | 24298 ft | 384 kts | 218° |
| 2026-05-05 20:03 | 36.33418 | -80.00817 | 23873 ft | 383 kts | 218° |
| 2026-05-05 20:04 | 36.31196 | -80.02648 | 23392 ft | 381 kts | 218° |
| 2026-05-05 20:04 | 36.28991 | -80.04463 | 22972 ft | 379 kts | 218° |
| 2026-05-05 20:04 | 36.26818 | -80.06254 | 22545 ft | 376 kts | 218° |
| 2026-05-05 20:04 | 36.24657 | -80.08034 | 22105 ft | 374 kts | 218° |
| 2026-05-05 20:05 | 36.22496 | -80.09815 | 21669 ft | 372 kts | 218° |
| 2026-05-05 20:05 | 36.20356 | -80.11576 | 21238 ft | 370 kts | 218° |
| 2026-05-05 20:05 | 36.18214 | -80.13338 | 20768 ft | 366 kts | 218° |
| 2026-05-05 20:05 | 36.16116 | -80.15063 | 20115 ft | 365 kts | 218° |
| 2026-05-05 20:06 | 36.14007 | -80.16797 | 19592 ft | 360 kts | 218° |
| 2026-05-05 20:06 | 36.11933 | -80.18499 | 18937 ft | 357 kts | 218° |
| 2026-05-05 20:06 | 36.09893 | -80.20171 | 18411 ft | 353 kts | 218° |
| 2026-05-05 20:06 | 36.07848 | -80.21848 | 17930 ft | 353 kts | 218° |
| 2026-05-05 20:07 | 36.05786 | -80.23538 | 17466 ft | 354 kts | 218° |
| 2026-05-05 20:07 | 36.03754 | -80.25201 | 17123 ft | 351 kts | 218° |
| 2026-05-05 20:07 | 36.01736 | -80.26850 | 16729 ft | 349 kts | 218° |
| 2026-05-05 20:07 | 35.99697 | -80.28516 | 16332 ft | 347 kts | 218° |
| 2026-05-05 20:08 | 35.97711 | -80.30140 | 15937 ft | 345 kts | 219° |
| 2026-05-05 20:08 | 35.95701 | -80.31783 | 15526 ft | 344 kts | 219° |
| 2026-05-05 20:08 | 35.93722 | -80.33401 | 15060 ft | 344 kts | 219° |
| 2026-05-05 20:08 | 35.91743 | -80.35014 | 14718 ft | 341 kts | 219° |
| 2026-05-05 20:09 | 35.89779 | -80.36616 | 14336 ft | 339 kts | 219° |
| 2026-05-05 20:09 | 35.87806 | -80.38226 | 13944 ft | 337 kts | 219° |
| 2026-05-05 20:09 | 35.85847 | -80.39819 | 13567 ft | 336 kts | 219° |
| 2026-05-05 20:09 | 35.83902 | -80.41400 | 13193 ft | 334 kts | 219° |
| 2026-05-05 20:10 | 35.82057 | -80.43066 | 12831 ft | 330 kts | 224° |
| 2026-05-05 20:10 | 35.80411 | -80.44953 | 12044 ft | 322 kts | 232° |
| 2026-05-05 20:10 | 35.78945 | -80.47015 | 11224 ft | 318 kts | 234° |
| 2026-05-05 20:10 | 35.77522 | -80.49058 | 10425 ft | 315 kts | 233° |
| 2026-05-05 20:11 | 35.76113 | -80.51052 | 9631 ft | 312 kts | 232° |
| 2026-05-05 20:11 | 35.74688 | -80.53037 | 9151 ft | 308 kts | 232° |
| 2026-05-05 20:11 | 35.73291 | -80.54959 | 8900 ft | 291 kts | 231° |
| 2026-05-05 20:11 | 35.71970 | -80.56760 | 8686 ft | 283 kts | 231° |
| 2026-05-05 20:12 | 35.70652 | -80.58552 | 8494 ft | 278 kts | 231° |
| 2026-05-05 20:12 | 35.69371 | -80.60294 | 8291 ft | 274 kts | 231° |
| 2026-05-05 20:12 | 35.68102 | -80.62017 | 8090 ft | 270 kts | 230° |
| 2026-05-05 20:12 | 35.66843 | -80.63724 | 7897 ft | 266 kts | 230° |
| 2026-05-05 20:13 | 35.65616 | -80.65387 | 7713 ft | 263 kts | 229° |
| 2026-05-05 20:13 | 35.64388 | -80.67050 | 7515 ft | 260 kts | 229° |
| 2026-05-05 20:13 | 35.63169 | -80.68698 | 7272 ft | 259 kts | 229° |
| 2026-05-05 20:13 | 35.61974 | -80.70312 | 7003 ft | 255 kts | 229° |
| 2026-05-05 20:14 | 35.60785 | -80.71918 | 6783 ft | 251 kts | 229° |
| 2026-05-05 20:14 | 35.59616 | -80.73495 | 6585 ft | 247 kts | 228° |
| 2026-05-05 20:14 | 35.58481 | -80.75028 | 6378 ft | 243 kts | 228° |
| 2026-05-05 20:14 | 35.57342 | -80.76543 | 6163 ft | 240 kts | 224° |
| 2026-05-05 20:15 | 35.56085 | -80.77863 | 5953 ft | 236 kts | 216° |
| 2026-05-05 20:15 | 35.54721 | -80.78960 | 5752 ft | 233 kts | 212° |
| 2026-05-05 20:15 | 35.53342 | -80.80004 | 5510 ft | 231 kts | 212° |
| 2026-05-05 20:15 | 35.51976 | -80.81030 | 5253 ft | 230 kts | 212° |
| 2026-05-05 20:16 | 35.50613 | -80.82057 | 5004 ft | 229 kts | 212° |
| 2026-05-05 20:16 | 35.49252 | -80.83084 | 4745 ft | 227 kts | 212° |
| 2026-05-05 20:16 | 35.47935 | -80.84079 | 4466 ft | 223 kts | 212° |
| 2026-05-05 20:16 | 35.46631 | -80.85065 | 4191 ft | 219 kts | 212° |
| 2026-05-05 20:17 | 35.45346 | -80.86037 | 3964 ft | 213 kts | 212° |
| 2026-05-05 20:17 | 35.44097 | -80.86980 | 3759 ft | 206 kts | 212° |
| 2026-05-05 20:17 | 35.42881 | -80.87898 | 3545 ft | 203 kts | 212° |
| 2026-05-05 20:17 | 35.41695 | -80.88796 | 3294 ft | 202 kts | 212° |
| 2026-05-05 20:18 | 35.40498 | -80.89700 | 3107 ft | 198 kts | 212° |
| 2026-05-05 20:18 | 35.39323 | -80.90587 | 3099 ft | 201 kts | 212° |
| 2026-05-05 20:18 | 35.38127 | -80.91489 | 3075 ft | 196 kts | 211° |
| 2026-05-05 20:18 | 35.37005 | -80.92336 | 3052 ft | 182 kts | 211° |
| 2026-05-05 20:19 | 35.35978 | -80.93109 | 3019 ft | 169 kts | 211° |
| 2026-05-05 20:19 | 35.35001 | -80.93845 | 2998 ft | 163 kts | 211° |
| 2026-05-05 20:19 | 35.33964 | -80.94411 | 2915 ft | 165 kts | 192° |
| 2026-05-05 20:19 | 35.32810 | -80.94508 | 2709 ft | 166 kts | 181° |
| 2026-05-05 20:20 | 35.31653 | -80.94432 | 2493 ft | 165 kts | 178° |
| 2026-05-05 20:20 | 35.30537 | -80.94318 | 2285 ft | 158 kts | 178° |
| 2026-05-05 20:20 | 35.29454 | -80.94212 | 2070 ft | 151 kts | 178° |
| 2026-05-05 20:20 | 35.28440 | -80.94124 | 1878 ft | 144 kts | 179° |
| 2026-05-05 20:21 | 35.27459 | -80.94040 | 1703 ft | 138 kts | 179° |
| 2026-05-05 20:21 | 35.26504 | -80.93961 | 1542 ft | 138 kts | 178° |
| 2026-05-05 20:21 | 35.25545 | -80.93879 | 1368 ft | 138 kts | 178° |
| 2026-05-05 20:21 | 35.24581 | -80.93796 | 1193 ft | 138 kts | 178° |
| 2026-05-05 20:22 | 35.23620 | -80.93713 | 1013 ft | 138 kts | 178° |
| 2026-05-05 20:22 | 35.22659 | -80.93638 | 823 ft | 138 kts | 177° |
| 2026-05-05 20:22 | 35.21731 | -80.93555 | 763 ft | 119 kts | 176° |
| 2026-05-05 20:22 | 35.21063 | -80.93497 | 763 ft | 79 kts | 175° |
| 2026-05-05 20:23 | 35.20584 | -80.93452 | 763 ft | 54 kts | 176° |
| 2026-05-05 20:23 | 35.20424 | -80.93442 | 763 ft | 13 kts | 195° |
| 2026-05-05 20:23 | 35.20377 | -80.93534 | 763 ft | 13 kts | 262° |
| 2026-05-05 20:23 | 35.20365 | -80.93626 | 763 ft | 7 kts | 245° |
| 2026-05-05 20:24 | 35.20310 | -80.93651 | 763 ft | 10 kts | 181° |
| 2026-05-05 20:24 | 35.20245 | -80.93665 | 763 ft | 9 kts | 224° |
| 2026-05-05 20:24 | 35.20212 | -80.93751 | 763 ft | 12 kts | 256° |
| 2026-05-05 20:24 | 35.20202 | -80.93861 | 762 ft | 14 kts | 265° |
| 2026-05-05 20:25 | 35.20195 | -80.93986 | 762 ft | 15 kts | 266° |
| 2026-05-05 20:25 | 35.20187 | -80.94125 | 762 ft | 16 kts | 265° |
| 2026-05-05 20:25 | 35.20143 | -80.94256 | 762 ft | 17 kts | 227° |
| 2026-05-05 20:25 | 35.20068 | -80.94371 | 762 ft | 17 kts | 252° |
| 2026-05-05 20:26 | 35.20052 | -80.94527 | 762 ft | 18 kts | 265° |
| 2026-05-05 20:26 | 35.20036 | -80.94684 | 762 ft | 18 kts | 262° |
| 2026-05-05 20:26 | 35.20029 | -80.94821 | 762 ft | 10 kts | 271° |
| 2026-05-05 20:26 | 35.20075 | -80.94882 | 762 ft | 11 kts | 347° |
| 2026-05-05 20:27 | 35.20166 | -80.94894 | 762 ft | 17 kts | 355° |
| 2026-05-05 20:27 | 35.20331 | -80.94909 | 762 ft | 28 kts | 355° |
| 2026-05-05 20:27 | 35.20527 | -80.94925 | 762 ft | 28 kts | 356° |
| 2026-05-05 20:27 | 35.20721 | -80.94942 | 762 ft | 27 kts | 356° |
| 2026-05-05 20:28 | 35.20913 | -80.94958 | 763 ft | 27 kts | 356° |
| 2026-05-05 20:28 | 35.21101 | -80.94974 | 762 ft | 27 kts | 356° |
| 2026-05-05 20:28 | 35.21289 | -80.94989 | 763 ft | 26 kts | 356° |
| 2026-05-05 20:28 | 35.21475 | -80.95008 | 763 ft | 26 kts | 354° |
| 2026-05-05 20:29 | 35.21657 | -80.95028 | 763 ft | 26 kts | 0° |
| 2026-05-05 20:29 | 35.21839 | -80.95034 | 763 ft | 26 kts | 352° |
| 2026-05-05 20:29 | 35.22018 | -80.95058 | 763 ft | 25 kts | 357° |
| 2026-05-05 20:29 | 35.22195 | -80.95069 | 763 ft | 25 kts | 355° |
| 2026-05-05 20:30 | 35.22359 | -80.95079 | 763 ft | 21 kts | 357° |
| 2026-05-05 20:30 | 35.22428 | -80.95064 | 763 ft | 8 kts | 50° |
| 2026-05-05 20:30 | 35.22449 | -80.94988 | 763 ft | 10 kts | 70° |
| 2026-05-05 20:30 | 35.22466 | -80.94921 | 763 ft | 5 kts | 81° |
| 2026-05-05 20:31 | 35.22469 | -80.94890 | 763 ft | 4 kts | 85° |
| 2026-05-05 20:31 | 35.22470 | -80.94878 | 763 ft | 0 kts | 86° |